Wetterdaten: Mittwoch, 29.07.2015
Datum Zeit Temp. Aussen +5cm Feuchte Auss BlattFeu 1 Luftdruck Regen Sonnenschein Regendauer Solar Windben
29.07.2015 00:00 13,8 C 12,2 C 73 % 0 lf 1007,9 hPa 0,0 l/m 0 min 0 min 0 W/m 18,8 km/h (3 Bft)
29.07.2015 00:02 13,8 C 12,2 C 73 % 0 lf 1007,9 hPa 0,0 l/m 0 min 0 min 0 W/m 18,8 km/h (3 Bft)
29.07.2015 00:05 13,8 C 12,2 C 73 % 0 lf 1007,9 hPa 0,0 l/m 0 min 0 min 0 W/m 16,7 km/h (3 Bft)
29.07.2015 00:08 13,8 C 12,2 C 73 % 0 lf 1007,9 hPa 0,0 l/m 0 min 0 min 0 W/m 16,7 km/h (3 Bft)
29.07.2015 00:10 13,7 C 12,2 C 73 % 0 lf 1007,9 hPa 0,0 l/m 0 min 0 min 0 W/m 16,7 km/h (3 Bft)
29.07.2015 00:12 13,7 C 12,2 C 73 % 0 lf 1007,9 hPa 0,0 l/m 0 min 0 min 0 W/m 18,8 km/h (3 Bft)
29.07.2015 00:14 13,7 C 12,2 C 73 % 0 lf 1007,9 hPa 0,0 l/m 0 min 0 min 0 W/m 16,7 km/h (3 Bft)
29.07.2015 00:16 13,7 C 12,2 C 73 % 0 lf 1007,9 hPa 0,0 l/m 0 min 0 min 0 W/m 12,6 km/h (3 Bft)
29.07.2015 00:18 13,7 C 12,2 C 73 % 0 lf 1007,9 hPa 0,0 l/m 0 min 0 min 0 W/m 16,7 km/h (3 Bft)
29.07.2015 00:20 13,6 C 12,2 C 73 % 0 lf 1007,9 hPa 0,0 l/m 0 min 0 min 0 W/m 18,8 km/h (3 Bft)
29.07.2015 00:22 13,6 C 12,2 C 73 % 0 lf 1007,9 hPa 0,0 l/m 0 min 0 min 0 W/m 18,8 km/h (3 Bft)
29.07.2015 00:24 13,6 C 12,2 C 73 % 0 lf 1008,0 hPa 0,0 l/m 0 min 0 min 0 W/m 16,7 km/h (3 Bft)
29.07.2015 00:26 13,6 C 12,2 C 73 % 0 lf 1007,9 hPa 0,0 l/m 0 min 0 min 0 W/m 16,7 km/h (3 Bft)
29.07.2015 00:28 13,5 C 12,2 C 73 % 0 lf 1008,0 hPa 0,0 l/m 0 min 0 min 0 W/m 18,8 km/h (3 Bft)
29.07.2015 00:30 13,5 C 12,2 C 73 % 0 lf 1007,9 hPa 0,0 l/m 0 min 0 min 0 W/m 18,8 km/h (3 Bft)
29.07.2015 00:32 13,4 C 12,2 C 73 % 0 lf 1008,0 hPa 0,0 l/m 0 min 0 min 0 W/m 14,6 km/h (3 Bft)
29.07.2015 00:34 13,4 C 12,2 C 73 % 0 lf 1007,9 hPa 0,0 l/m 0 min 0 min 0 W/m 16,7 km/h (3 Bft)
29.07.2015 00:36 13,4 C 11,7 C 74 % 0 lf 1007,9 hPa 0,0 l/m 0 min 0 min 0 W/m 12,6 km/h (3 Bft)
29.07.2015 00:38 13,4 C 11,7 C 74 % 0 lf 1008,0 hPa 0,0 l/m 0 min 0 min 0 W/m 12,6 km/h (3 Bft)
29.07.2015 00:40 13,4 C 11,7 C 74 % 0 lf 1008,0 hPa 0,0 l/m 0 min 0 min 0 W/m 14,6 km/h (3 Bft)
29.07.2015 00:42 13,3 C 11,7 C 74 % 0 lf 1007,9 hPa 0,0 l/m 0 min 0 min 0 W/m 18,8 km/h (3 Bft)
29.07.2015 00:44 13,3 C 11,7 C 74 % 0 lf 1008,0 hPa 0,0 l/m 0 min 0 min 0 W/m 18,8 km/h (3 Bft)
29.07.2015 00:46 13,3 C 11,7 C 74 % 0 lf 1008,1 hPa 0,0 l/m 0 min 0 min 0 W/m 18,8 km/h (3 Bft)
29.07.2015 00:48 13,3 C 11,7 C 74 % 0 lf 1008,0 hPa 0,0 l/m 0 min 0 min 0 W/m 18,8 km/h (3 Bft)
29.07.2015 00:50 13,2 C 11,7 C 74 % 0 lf 1008,0 hPa 0,0 l/m 0 min 0 min 0 W/m 16,7 km/h (3 Bft)
29.07.2015 00:52 13,2 C 11,7 C 74 % 0 lf 1008,0 hPa 0,0 l/m 0 min 0 min 0 W/m 18,8 km/h (3 Bft)
29.07.2015 00:54 13,2 C 11,7 C 75 % 0 lf 1008,0 hPa 0,0 l/m 0 min 0 min 0 W/m 14,6 km/h (3 Bft)
29.07.2015 00:56 13,2 C 11,7 C 74 % 0 lf 1008,1 hPa 0,0 l/m 0 min 0 min 0 W/m 14,6 km/h (3 Bft)
29.07.2015 00:58 13,2 C 11,7 C 75 % 0 lf 1008,1 hPa 0,0 l/m 0 min 0 min 0 W/m 16,7 km/h (3 Bft)
29.07.2015 01:00 13,1 C 11,7 C 75 % 0 lf 1008,0 hPa 0,0 l/m 0 min 0 min 0 W/m 14,6 km/h (3 Bft)
29.07.2015 01:02 13,1 C 11,7 C 75 % 0 lf 1008,1 hPa 0,0 l/m 0 min 0 min 0 W/m 14,6 km/h (3 Bft)
29.07.2015 01:04 13,1 C 11,7 C 75 % 0 lf 1008,1 hPa 0,0 l/m 0 min 0 min 0 W/m 14,6 km/h (3 Bft)
29.07.2015 01:06 13,1 C 11,7 C 75 % 0 lf 1008,0 hPa 0,0 l/m 0 min 0 min 0 W/m 18,8 km/h (3 Bft)
29.07.2015 01:08 13,1 C 11,7 C 75 % 0 lf 1008,0 hPa 0,0 l/m 0 min 0 min 0 W/m 16,7 km/h (3 Bft)
29.07.2015 01:10 13,1 C 11,7 C 75 % 0 lf 1008,0 hPa 0,0 l/m 0 min 0 min 0 W/m 14,6 km/h (3 Bft)
29.07.2015 01:12 13,1 C 11,7 C 75 % 0 lf 1008,0 hPa 0,0 l/m 0 min 0 min 0 W/m 16,7 km/h (3 Bft)
29.07.2015 01:14 13,0 C 11,7 C 75 % 0 lf 1008,1 hPa 0,0 l/m 0 min 0 min 0 W/m 23,0 km/h (4 Bft)
29.07.2015 01:16 13,0 C 11,7 C 76 % 0 lf 1008,1 hPa 0,0 l/m 0 min 0 min 0 W/m 18,8 km/h (3 Bft)
29.07.2015 01:18 13,0 C 11,7 C 76 % 0 lf 1008,1 hPa 0,0 l/m 0 min 0 min 0 W/m 20,9 km/h (4 Bft)
29.07.2015 01:20 13,0 C 11,7 C 76 % 0 lf 1008,1 hPa 0,0 l/m 0 min 0 min 0 W/m 18,8 km/h (3 Bft)
29.07.2015 01:22 13,0 C 11,7 C 76 % 0 lf 1008,1 hPa 0,0 l/m 0 min 0 min 0 W/m 23,0 km/h (4 Bft)
29.07.2015 01:24 13,0 C 11,7 C 76 % 0 lf 1008,1 hPa 0,0 l/m 0 min 0 min 0 W/m 20,9 km/h (4 Bft)
29.07.2015 01:26 13,0 C 11,7 C 76 % 0 lf 1008,1 hPa 0,0 l/m 0 min 0 min 0 W/m 25,1 km/h (4 Bft)
29.07.2015 01:28 13,0 C 11,7 C 76 % 0 lf 1008,1 hPa 0,0 l/m 0 min 0 min 0 W/m 20,9 km/h (4 Bft)
29.07.2015 01:30 13,0 C 11,7 C 76 % 0 lf 1008,1 hPa 0,0 l/m 0 min 0 min 0 W/m 20,9 km/h (4 Bft)
29.07.2015 01:32 13,0 C 11,7 C 76 % 0 lf 1008,1 hPa 0,0 l/m 0 min 0 min 0 W/m 18,8 km/h (3 Bft)
29.07.2015 01:34 13,0 C 11,7 C 76 % 0 lf 1008,1 hPa 0,0 l/m 0 min 0 min 0 W/m 18,8 km/h (3 Bft)
29.07.2015 01:36 13,0 C 11,7 C 76 % 0 lf 1008,1 hPa 0,0 l/m 0 min 0 min 0 W/m 16,7 km/h (3 Bft)
29.07.2015 01:38 13,0 C 11,7 C 76 % 0 lf 1008,1 hPa 0,0 l/m 0 min 0 min 0 W/m 18,8 km/h (3 Bft)
29.07.2015 01:40 13,0 C 11,7 C 76 % 0 lf 1008,0 hPa 0,0 l/m 0 min 0 min 0 W/m 18,8 km/h (3 Bft)
29.07.2015 01:42 13,0 C 11,7 C 76 % 0 lf 1008,0 hPa 0,0 l/m 0 min 0 min 0 W/m 16,7 km/h (3 Bft)
29.07.2015 01:44 13,0 C 11,7 C 76 % 0 lf 1008,0 hPa 0,0 l/m 0 min 0 min 0 W/m 18,8 km/h (3 Bft)
29.07.2015 01:46 13,0 C 11,7 C 76 % 0 lf 1007,9 hPa 0,0 l/m 0 min 0 min 0 W/m 23,0 km/h (4 Bft)
29.07.2015 01:48 13,0 C 11,7 C 76 % 0 lf 1007,9 hPa 0,0 l/m 0 min 0 min 0 W/m 14,6 km/h (3 Bft)
29.07.2015 01:50 13,0 C 11,7 C 76 % 0 lf 1007,9 hPa 0,0 l/m 0 min 0 min 0 W/m 18,8 km/h (3 Bft)
29.07.2015 01:52 13,0 C 11,7 C 77 % 0 lf 1007,9 hPa 0,0 l/m 0 min 0 min 0 W/m 18,8 km/h (3 Bft)
29.07.2015 01:54 13,0 C 11,7 C 77 % 0 lf 1007,9 hPa 0,0 l/m 0 min 0 min 0 W/m 20,9 km/h (4 Bft)
29.07.2015 01:56 13,0 C 11,7 C 77 % 0 lf 1007,9 hPa 0,0 l/m 0 min 0 min 0 W/m 29,3 km/h (5 Bft)
29.07.2015 01:58 13,0 C 11,7 C 77 % 0 lf 1007,9 hPa 0,0 l/m 0 min 0 min 0 W/m 29,3 km/h (5 Bft)
29.07.2015 02:00 13,1 C 11,7 C 77 % 0 lf 1008,0 hPa 0,0 l/m 0 min 0 min 0 W/m 27,2 km/h (4 Bft)
29.07.2015 02:02 13,1 C 11,7 C 77 % 0 lf 1007,9 hPa 0,0 l/m 0 min 0 min 0 W/m 18,8 km/h (3 Bft)
29.07.2015 02:04 13,1 C 11,7 C 77 % 0 lf 1007,9 hPa 0,0 l/m 0 min 0 min 0 W/m 18,8 km/h (3 Bft)
29.07.2015 02:06 13,1 C 11,7 C 77 % 0 lf 1007,9 hPa 0,0 l/m 0 min 0 min 0 W/m 18,8 km/h (3 Bft)
29.07.2015 02:08 13,1 C 11,7 C 77 % 0 lf 1007,9 hPa 0,0 l/m 0 min 0 min 0 W/m 29,3 km/h (5 Bft)
29.07.2015 02:10 13,1 C 11,7 C 77 % 0 lf 1007,8 hPa 0,0 l/m 0 min 0 min 0 W/m 27,2 km/h (4 Bft)
29.07.2015 02:12 13,1 C 11,7 C 77 % 0 lf 1007,9 hPa 0,0 l/m 0 min 0 min 0 W/m 18,8 km/h (3 Bft)
29.07.2015 02:14 13,1 C 11,7 C 77 % 0 lf 1007,9 hPa 0,0 l/m 0 min 0 min 0 W/m 20,9 km/h (4 Bft)
29.07.2015 02:16 13,1 C 11,7 C 77 % 0 lf 1007,8 hPa 0,0 l/m 0 min 0 min 0 W/m 25,1 km/h (4 Bft)
29.07.2015 02:18 13,1 C 11,7 C 77 % 0 lf 1007,8 hPa 0,0 l/m 0 min 0 min 0 W/m 23,0 km/h (4 Bft)
29.07.2015 02:20 13,1 C 11,7 C 77 % 0 lf 1007,8 hPa 0,0 l/m 0 min 0 min 0 W/m 23,0 km/h (4 Bft)
29.07.2015 02:22 13,1 C 11,7 C 77 % 0 lf 1007,8 hPa 0,0 l/m 0 min 0 min 0 W/m 18,8 km/h (3 Bft)
29.07.2015 02:24 13,1 C 11,7 C 77 % 0 lf 1007,8 hPa 0,0 l/m 0 min 0 min 0 W/m 18,8 km/h (3 Bft)
29.07.2015 02:26 13,1 C 11,7 C 78 % 0 lf 1007,8 hPa 0,0 l/m 0 min 0 min 0 W/m 29,3 km/h (5 Bft)
29.07.2015 02:28 13,1 C 11,7 C 78 % 0 lf 1007,9 hPa 0,0 l/m 0 min 0 min 0 W/m 18,8 km/h (3 Bft)
29.07.2015 02:30 13,0 C 11,7 C 78 % 0 lf 1008,0 hPa 0,0 l/m 0 min 0 min 0 W/m 20,9 km/h (4 Bft)
29.07.2015 02:32 13,0 C 11,7 C 78 % 0 lf 1008,0 hPa 0,0 l/m 0 min 0 min 0 W/m 20,9 km/h (4 Bft)
29.07.2015 02:34 13,0 C 11,7 C 79 % 0 lf 1008,0 hPa 0,0 l/m 0 min 0 min 0 W/m 25,1 km/h (4 Bft)
29.07.2015 02:36 12,9 C 11,7 C 79 % 0 lf 1008,0 hPa 0,0 l/m 0 min 0 min 0 W/m 25,1 km/h (4 Bft)
29.07.2015 02:38 12,9 C 11,7 C 79 % 0 lf 1008,0 hPa 0,0 l/m 0 min 0 min 0 W/m 23,0 km/h (4 Bft)
29.07.2015 02:40 12,9 C 11,7 C 79 % 0 lf 1008,0 hPa 0,0 l/m 0 min 0 min 0 W/m 18,8 km/h (3 Bft)
29.07.2015 02:42 12,9 C 11,7 C 80 % 0 lf 1008,0 hPa 0,0 l/m 0 min 0 min 0 W/m 20,9 km/h (4 Bft)
29.07.2015 02:44 12,9 C 11,7 C 80 % 0 lf 1008,0 hPa 0,0 l/m 0 min 0 min 0 W/m 20,9 km/h (4 Bft)
29.07.2015 02:46 12,9 C 11,7 C 80 % 0 lf 1008,0 hPa 0,0 l/m 0 min 0 min 0 W/m 18,8 km/h (3 Bft)
29.07.2015 02:48 12,8 C 11,7 C 81 % 0 lf 1008,0 hPa 0,0 l/m 0 min 0 min 0 W/m 18,8 km/h (3 Bft)
29.07.2015 02:50 12,8 C 11,7 C 81 % 0 lf 1008,0 hPa 0,0 l/m 0 min 0 min 0 W/m 16,7 km/h (3 Bft)
29.07.2015 02:52 12,8 C 11,7 C 81 % 0 lf 1008,0 hPa 0,0 l/m 0 min 0 min 0 W/m 18,8 km/h (3 Bft)
29.07.2015 02:54 12,8 C 11,7 C 81 % 0 lf 1008,0 hPa 0,0 l/m 0 min 0 min 0 W/m 23,0 km/h (4 Bft)
29.07.2015 02:56 12,8 C 11,7 C 81 % 0 lf 1008,0 hPa 0,0 l/m 0 min 0 min 0 W/m 16,7 km/h (3 Bft)
29.07.2015 02:58 12,8 C 11,7 C 82 % 0 lf 1008,0 hPa 0,0 l/m 0 min 0 min 0 W/m 23,0 km/h (4 Bft)
29.07.2015 03:00 12,8 C 11,7 C 82 % 0 lf 1008,0 hPa 0,0 l/m 0 min 0 min 0 W/m 18,8 km/h (3 Bft)
29.07.2015 03:02 12,8 C 11,7 C 82 % 0 lf 1008,0 hPa 0,0 l/m 0 min 0 min 0 W/m 23,0 km/h (4 Bft)
29.07.2015 03:04 12,8 C 11,7 C 82 % 0 lf 1008,1 hPa 0,0 l/m 0 min 0 min 0 W/m 18,8 km/h (3 Bft)
29.07.2015 03:06 12,8 C 11,7 C 82 % 0 lf 1008,1 hPa 0,0 l/m 0 min 0 min 0 W/m 27,2 km/h (4 Bft)
29.07.2015 03:08 12,8 C 11,7 C 83 % 0 lf 1008,0 hPa 0,0 l/m 0 min 0 min 0 W/m 23,0 km/h (4 Bft)
29.07.2015 03:10 12,8 C 11,7 C 83 % 0 lf 1008,0 hPa 0,0 l/m 0 min 0 min 0 W/m 20,9 km/h (4 Bft)
29.07.2015 03:12 12,8 C 11,7 C 83 % 0 lf 1008,1 hPa 0,0 l/m 0 min 0 min 0 W/m 20,9 km/h (4 Bft)
29.07.2015 03:14 12,8 C 11,7 C 83 % 0 lf 1008,1 hPa 0,0 l/m 0 min 0 min 0 W/m 23,0 km/h (4 Bft)
29.07.2015 03:16 12,8 C 11,7 C 83 % 0 lf 1008,1 hPa 0,0 l/m 0 min 0 min 0 W/m 16,7 km/h (3 Bft)
29.07.2015 03:18 12,8 C 11,7 C 83 % 0 lf 1008,0 hPa 0,0 l/m 0 min 0 min 0 W/m 23,0 km/h (4 Bft)
29.07.2015 03:20 12,8 C 12,2 C 83 % 0 lf 1008,0 hPa 0,0 l/m 0 min 0 min 0 W/m 14,6 km/h (3 Bft)
29.07.2015 03:22 12,9 C 12,2 C 83 % 0 lf 1008,0 hPa 0,0 l/m 0 min 0 min 0 W/m 18,8 km/h (3 Bft)
29.07.2015 03:24 12,9 C 12,2 C 83 % 0 lf 1008,0 hPa 0,0 l/m 0 min 0 min 0 W/m 23,0 km/h (4 Bft)
29.07.2015 03:26 12,9 C 12,2 C 83 % 0 lf 1008,1 hPa 0,0 l/m 0 min 0 min 0 W/m 18,8 km/h (3 Bft)
29.07.2015 03:28 12,9 C 12,2 C 84 % 0 lf 1008,0 hPa 0,0 l/m 0 min 0 min 0 W/m 23,0 km/h (4 Bft)
29.07.2015 03:30 12,9 C 12,2 C 84 % 0 lf 1008,1 hPa 0,0 l/m 0 min 0 min 0 W/m 23,0 km/h (4 Bft)
29.07.2015 03:32 12,9 C 12,2 C 84 % 0 lf 1008,0 hPa 0,0 l/m 0 min 0 min 0 W/m 20,9 km/h (4 Bft)
29.07.2015 03:34 12,9 C 12,2 C 84 % 0 lf 1008,1 hPa 0,0 l/m 0 min 0 min 0 W/m 20,9 km/h (4 Bft)
29.07.2015 03:36 12,9 C 12,2 C 84 % 0 lf 1008,0 hPa 0,0 l/m 0 min 0 min 0 W/m 25,1 km/h (4 Bft)
29.07.2015 03:38 13,0 C 12,2 C 84 % 0 lf 1008,1 hPa 0,0 l/m 0 min 0 min 0 W/m 12,6 km/h (3 Bft)
29.07.2015 03:40 13,0 C 12,2 C 84 % 0 lf 1008,0 hPa 0,0 l/m 0 min 0 min 0 W/m 16,7 km/h (3 Bft)
29.07.2015 03:42 13,0 C 12,2 C 84 % 0 lf 1008,1 hPa 0,0 l/m 0 min 0 min 0 W/m 25,1 km/h (4 Bft)
29.07.2015 03:44 13,0 C 12,2 C 84 % 0 lf 1008,0 hPa 0,0 l/m 0 min 0 min 0 W/m 18,8 km/h (3 Bft)
29.07.2015 03:46 13,0 C 12,2 C 84 % 0 lf 1007,9 hPa 0,0 l/m 0 min 0 min 0 W/m 20,9 km/h (4 Bft)
29.07.2015 03:48 13,0 C 12,2 C 84 % 0 lf 1007,9 hPa 0,0 l/m 0 min 0 min 0 W/m 18,8 km/h (3 Bft)
29.07.2015 03:50 13,1 C 12,2 C 84 % 0 lf 1007,9 hPa 0,0 l/m 0 min 0 min 0 W/m 27,2 km/h (4 Bft)
29.07.2015 03:52 13,1 C 12,2 C 84 % 0 lf 1007,9 hPa 0,0 l/m 0 min 0 min 0 W/m 27,2 km/h (4 Bft)
29.07.2015 03:54 13,1 C 12,2 C 84 % 0 lf 1007,9 hPa 0,0 l/m 0 min 0 min 0 W/m 20,9 km/h (4 Bft)
29.07.2015 03:56 13,1 C 12,2 C 84 % 0 lf 1007,8 hPa 0,0 l/m 0 min 0 min 0 W/m 14,6 km/h (3 Bft)
29.07.2015 03:58 13,1 C 12,2 C 84 % 0 lf 1007,8 hPa 0,0 l/m 0 min 0 min 0 W/m 14,6 km/h (3 Bft)
29.07.2015 04:00 13,1 C 12,2 C 84 % 0 lf 1007,7 hPa 0,0 l/m 0 min 0 min 0 W/m 25,1 km/h (4 Bft)
29.07.2015 04:02 13,1 C 12,2 C 84 % 0 lf 1007,7 hPa 0,0 l/m 0 min 0 min 0 W/m 25,1 km/h (4 Bft)
29.07.2015 04:04 13,1 C 12,2 C 84 % 0 lf 1007,7 hPa 0,0 l/m 0 min 0 min 0 W/m 31,4 km/h (5 Bft)
29.07.2015 04:06 13,2 C 12,2 C 84 % 0 lf 1007,7 hPa 0,0 l/m 0 min 0 min 0 W/m 31,4 km/h (5 Bft)
29.07.2015 04:08 13,2 C 12,2 C 84 % 0 lf 1007,7 hPa 0,0 l/m 0 min 0 min 0 W/m 23,0 km/h (4 Bft)
29.07.2015 04:10 13,2 C 12,2 C 84 % 0 lf 1007,7 hPa 0,0 l/m 0 min 0 min 0 W/m 25,1 km/h (4 Bft)
29.07.2015 04:12 13,2 C 12,2 C 84 % 0 lf 1007,8 hPa 0,0 l/m 0 min 0 min 0 W/m 20,9 km/h (4 Bft)
29.07.2015 04:14 13,2 C 12,2 C 84 % 0 lf 1007,7 hPa 0,0 l/m 0 min 0 min 0 W/m 18,8 km/h (3 Bft)
29.07.2015 04:16 13,2 C 12,2 C 84 % 0 lf 1007,7 hPa 0,0 l/m 0 min 0 min 0 W/m 23,0 km/h (4 Bft)
29.07.2015 04:18 13,2 C 12,2 C 84 % 0 lf 1007,6 hPa 0,0 l/m 0 min 0 min 0 W/m 14,6 km/h (3 Bft)
29.07.2015 04:20 13,2 C 12,2 C 84 % 0 lf 1007,6 hPa 0,0 l/m 0 min 0 min 0 W/m 25,1 km/h (4 Bft)
29.07.2015 04:22 13,2 C 12,2 C 84 % 0 lf 1007,6 hPa 0,0 l/m 0 min 0 min 0 W/m 16,7 km/h (3 Bft)
29.07.2015 04:24 13,2 C 12,2 C 84 % 0 lf 1007,6 hPa 0,0 l/m 0 min 0 min 0 W/m 25,1 km/h (4 Bft)
29.07.2015 04:26 13,2 C 12,2 C 84 % 0 lf 1007,6 hPa 0,0 l/m 0 min 0 min 0 W/m 27,2 km/h (4 Bft)
29.07.2015 04:28 13,2 C 12,2 C 84 % 0 lf 1007,6 hPa 0,0 l/m 0 min 0 min 0 W/m 23,0 km/h (4 Bft)
29.07.2015 04:30 13,2 C 12,2 C 84 % 0 lf 1007,6 hPa 0,0 l/m 0 min 0 min 0 W/m 20,9 km/h (4 Bft)
29.07.2015 04:32 13,2 C 12,2 C 84 % 0 lf 1007,6 hPa 0,0 l/m 0 min 0 min 0 W/m 23,0 km/h (4 Bft)
29.07.2015 04:34 13,2 C 12,2 C 84 % 0 lf 1007,7 hPa 0,0 l/m 0 min 0 min 0 W/m 20,9 km/h (4 Bft)
29.07.2015 04:36 13,2 C 12,2 C 84 % 0 lf 1007,6 hPa 0,0 l/m 0 min 0 min 0 W/m 14,6 km/h (3 Bft)
29.07.2015 04:38 13,2 C 12,2 C 84 % 0 lf 1007,6 hPa 0,0 l/m 0 min 0 min 0 W/m 20,9 km/h (4 Bft)
29.07.2015 04:40 13,2 C 12,2 C 84 % 0 lf 1007,6 hPa 0,0 l/m 0 min 0 min 0 W/m 20,9 km/h (4 Bft)
29.07.2015 04:42 13,2 C 12,2 C 84 % 0 lf 1007,6 hPa 0,0 l/m 0 min 0 min 0 W/m 23,0 km/h (4 Bft)
29.07.2015 04:44 13,2 C 12,2 C 84 % 0 lf 1007,7 hPa 0,0 l/m 0 min 0 min 0 W/m 27,2 km/h (4 Bft)
29.07.2015 04:46 13,2 C 12,2 C 84 % 0 lf 1007,8 hPa 0,0 l/m 0 min 0 min 0 W/m 16,7 km/h (3 Bft)
29.07.2015 04:48 13,2 C 12,2 C 84 % 0 lf 1007,7 hPa 0,0 l/m 0 min 0 min 0 W/m 23,0 km/h (4 Bft)
29.07.2015 04:50 13,2 C 12,2 C 84 % 0 lf 1007,8 hPa 0,0 l/m 0 min 0 min 0 W/m 20,9 km/h (4 Bft)
29.07.2015 04:52 13,2 C 12,2 C 84 % 0 lf 1007,7 hPa 0,0 l/m 0 min 0 min 0 W/m 18,8 km/h (3 Bft)
29.07.2015 04:54 13,2 C 12,2 C 84 % 0 lf 1007,7 hPa 0,0 l/m 0 min 0 min 0 W/m 20,9 km/h (4 Bft)
29.07.2015 04:56 13,2 C 12,2 C 84 % 0 lf 1007,7 hPa 0,0 l/m 0 min 0 min 0 W/m 16,7 km/h (3 Bft)
29.07.2015 04:58 13,2 C 12,2 C 84 % 0 lf 1007,7 hPa 0,0 l/m 0 min 0 min 0 W/m 18,8 km/h (3 Bft)
29.07.2015 05:00 13,2 C 12,2 C 84 % 0 lf 1007,7 hPa 0,0 l/m 0 min 0 min 0 W/m 20,9 km/h (4 Bft)
29.07.2015 05:02 13,2 C 12,2 C 84 % 0 lf 1007,7 hPa 0,0 l/m 0 min 0 min 0 W/m 18,8 km/h (3 Bft)
29.07.2015 05:04 13,2 C 12,2 C 84 % 0 lf 1007,7 hPa 0,0 l/m 0 min 0 min 0 W/m 18,8 km/h (3 Bft)
29.07.2015 05:06 13,2 C 12,2 C 84 % 0 lf 1007,8 hPa 0,0 l/m 0 min 0 min 0 W/m 25,1 km/h (4 Bft)
29.07.2015 05:08 13,2 C 12,2 C 84 % 0 lf 1007,8 hPa 0,0 l/m 0 min 0 min 0 W/m 23,0 km/h (4 Bft)
29.07.2015 05:10 13,2 C 12,2 C 84 % 0 lf 1007,8 hPa 0,0 l/m 0 min 0 min 0 W/m 23,0 km/h (4 Bft)
29.07.2015 05:12 13,2 C 12,2 C 84 % 0 lf 1007,8 hPa 0,0 l/m 0 min 0 min 0 W/m 29,3 km/h (5 Bft)
29.07.2015 05:14 13,2 C 12,2 C 84 % 0 lf 1007,7 hPa 0,0 l/m 0 min 0 min 0 W/m 27,2 km/h (4 Bft)
29.07.2015 05:16 13,2 C 12,2 C 84 % 0 lf 1007,7 hPa 0,0 l/m 0 min 0 min 0 W/m 18,8 km/h (3 Bft)
29.07.2015 05:18 13,2 C 12,2 C 84 % 0 lf 1007,7 hPa 0,0 l/m 0 min 0 min 0 W/m 16,7 km/h (3 Bft)
29.07.2015 05:20 13,2 C 12,2 C 84 % 0 lf 1007,6 hPa 0,0 l/m 0 min 0 min 0 W/m 18,8 km/h (3 Bft)
29.07.2015 05:22 13,2 C 12,2 C 84 % 0 lf 1007,7 hPa 0,0 l/m 0 min 0 min 0 W/m 23,0 km/h (4 Bft)
29.07.2015 05:24 13,2 C 12,2 C 85 % 0 lf 1007,7 hPa 0,0 l/m 0 min 0 min 0 W/m 20,9 km/h (4 Bft)
29.07.2015 05:26 13,1 C 12,2 C 85 % 0 lf 1007,7 hPa 0,0 l/m 0 min 0 min 0 W/m 20,9 km/h (4 Bft)
29.07.2015 05:28 13,1 C 12,2 C 85 % 0 lf 1007,7 hPa 0,0 l/m 0 min 0 min 0 W/m 20,9 km/h (4 Bft)
29.07.2015 05:30 13,1 C 12,2 C 85 % 0 lf 1007,6 hPa 0,0 l/m 0 min 0 min 0 W/m 18,8 km/h (3 Bft)
29.07.2015 05:32 13,1 C 12,2 C 85 % 0 lf 1007,7 hPa 0,0 l/m 0 min 0 min 0 W/m 14,6 km/h (3 Bft)
29.07.2015 05:34 13,1 C 12,2 C 85 % 0 lf 1007,6 hPa 0,0 l/m 0 min 0 min 0 W/m 10,5 km/h (2 Bft)
29.07.2015 05:36 13,1 C 11,7 C 85 % 0 lf 1007,6 hPa 0,0 l/m 0 min 0 min 0 W/m 12,6 km/h (3 Bft)
29.07.2015 05:38 13,1 C 11,7 C 85 % 0 lf 1007,6 hPa 0,0 l/m 0 min 0 min 0 W/m 12,6 km/h (3 Bft)
29.07.2015 05:40 13,1 C 11,7 C 85 % 0 lf 1007,6 hPa 0,0 l/m 0 min 0 min 0 W/m 16,7 km/h (3 Bft)
29.07.2015 05:42 13,1 C 11,7 C 85 % 0 lf 1007,6 hPa 0,0 l/m 0 min 0 min 0 W/m 14,6 km/h (3 Bft)
29.07.2015 05:44 13,1 C 11,7 C 85 % 0 lf 1007,6 hPa 0,0 l/m 0 min 0 min 0 W/m 16,7 km/h (3 Bft)
29.07.2015 05:46 13,0 C 11,7 C 85 % 0 lf 1007,6 hPa 0,0 l/m 0 min 0 min 0 W/m 23,0 km/h (4 Bft)
29.07.2015 05:48 13,0 C 11,7 C 85 % 0 lf 1007,6 hPa 0,0 l/m 0 min 0 min 4 W/m 16,7 km/h (3 Bft)
29.07.2015 05:50 13,0 C 11,7 C 85 % 0 lf 1007,6 hPa 0,0 l/m 0 min 0 min 5 W/m 16,7 km/h (3 Bft)
29.07.2015 05:52 12,9 C 11,7 C 85 % 0 lf 1007,6 hPa 0,0 l/m 0 min 0 min 5 W/m 23,0 km/h (4 Bft)
29.07.2015 05:54 12,9 C 11,7 C 85 % 0 lf 1007,5 hPa 0,0 l/m 0 min 0 min 5 W/m 23,0 km/h (4 Bft)
29.07.2015 05:56 12,9 C 11,7 C 85 % 0 lf 1007,5 hPa 0,0 l/m 0 min 0 min 5 W/m 25,1 km/h (4 Bft)
29.07.2015 05:58 12,9 C 11,7 C 85 % 0 lf 1007,5 hPa 0,0 l/m 0 min 0 min 7 W/m 20,9 km/h (4 Bft)
29.07.2015 06:00 12,9 C 11,7 C 85 % 0 lf 1007,5 hPa 0,0 l/m 0 min 0 min 7 W/m 12,6 km/h (3 Bft)
29.07.2015 06:02 12,9 C 11,7 C 85 % 0 lf 1007,5 hPa 0,0 l/m 0 min 0 min 8 W/m 18,8 km/h (3 Bft)
29.07.2015 06:05 12,8 C 11,7 C 85 % 0 lf 1007,5 hPa 0,0 l/m 0 min 0 min 11 W/m 14,6 km/h (3 Bft)
29.07.2015 06:06 12,8 C 11,7 C 86 % 0 lf 1007,5 hPa 0,0 l/m 0 min 0 min 10 W/m 18,8 km/h (3 Bft)
29.07.2015 06:08 12,8 C 11,7 C 86 % 0 lf 1007,5 hPa 0,0 l/m 0 min 0 min 11 W/m 18,8 km/h (3 Bft)
29.07.2015 06:10 12,8 C 11,7 C 86 % 0 lf 1007,5 hPa 0,0 l/m 0 min 0 min 11 W/m 18,8 km/h (3 Bft)
29.07.2015 06:12 12,8 C 11,7 C 86 % 0 lf 1007,5 hPa 0,0 l/m 0 min 0 min 12 W/m 25,1 km/h (4 Bft)
29.07.2015 06:14 12,8 C 11,7 C 86 % 0 lf 1007,5 hPa 0,0 l/m 0 min 0 min 14 W/m 20,9 km/h (4 Bft)
29.07.2015 06:16 12,8 C 11,7 C 86 % 0 lf 1007,5 hPa 0,0 l/m 0 min 0 min 17 W/m 25,1 km/h (4 Bft)
29.07.2015 06:18 12,8 C 11,7 C 86 % 0 lf 1007,5 hPa 0,0 l/m 0 min 0 min 18 W/m 18,8 km/h (3 Bft)
29.07.2015 06:20 12,8 C 11,7 C 86 % 0 lf 1007,5 hPa 0,0 l/m 0 min 0 min 21 W/m 18,8 km/h (3 Bft)
29.07.2015 06:22 12,8 C 11,7 C 86 % 0 lf 1007,5 hPa 0,0 l/m 0 min 0 min 25 W/m 18,8 km/h (3 Bft)
29.07.2015 06:24 12,7 C 11,7 C 86 % 0 lf 1007,5 hPa 0,0 l/m 2 min 0 min 30 W/m 16,7 km/h (3 Bft)
29.07.2015 06:26 12,7 C 11,7 C 86 % 0 lf 1007,5 hPa 0,0 l/m 2 min 0 min 32 W/m 16,7 km/h (3 Bft)
29.07.2015 06:28 12,7 C 11,7 C 86 % 0 lf 1007,5 hPa 0,0 l/m 0 min 0 min 30 W/m 16,7 km/h (3 Bft)
29.07.2015 06:30 12,7 C 11,7 C 86 % 0 lf 1007,5 hPa 0,0 l/m 0 min 0 min 29 W/m 18,8 km/h (3 Bft)
29.07.2015 06:32 12,7 C 11,7 C 86 % 0 lf 1007,6 hPa 0,0 l/m 0 min 0 min 28 W/m 16,7 km/h (3 Bft)
29.07.2015 06:34 12,7 C 11,7 C 86 % 0 lf 1007,6 hPa 0,0 l/m 0 min 0 min 29 W/m 16,7 km/h (3 Bft)
29.07.2015 06:36 12,7 C 11,7 C 86 % 0 lf 1007,6 hPa 0,0 l/m 0 min 0 min 31 W/m 16,7 km/h (3 Bft)
29.07.2015 06:38 12,7 C 11,7 C 86 % 0 lf 1007,6 hPa 0,0 l/m 0 min 0 min 33 W/m 16,7 km/h (3 Bft)
29.07.2015 06:40 12,6 C 11,7 C 86 % 0 lf 1007,6 hPa 0,0 l/m 0 min 0 min 31 W/m 25,1 km/h (4 Bft)
29.07.2015 06:42 12,6 C 11,7 C 86 % 0 lf 1007,5 hPa 0,0 l/m 0 min 0 min 30 W/m 23,0 km/h (4 Bft)
29.07.2015 06:44 12,6 C 11,1 C 87 % 0 lf 1007,5 hPa 0,0 l/m 0 min 0 min 30 W/m 16,7 km/h (3 Bft)
29.07.2015 06:46 12,6 C 11,1 C 87 % 0 lf 1007,5 hPa 0,0 l/m 0 min 0 min 33 W/m 23,0 km/h (4 Bft)
29.07.2015 06:48 12,5 C 11,1 C 87 % 0 lf 1007,6 hPa 0,0 l/m 0 min 0 min 33 W/m 25,1 km/h (4 Bft)
29.07.2015 06:50 12,5 C 11,1 C 87 % 0 lf 1007,6 hPa 0,0 l/m 0 min 0 min 35 W/m 20,9 km/h (4 Bft)
29.07.2015 06:52 12,5 C 11,1 C 87 % 0 lf 1007,6 hPa 0,0 l/m 0 min 0 min 33 W/m 20,9 km/h (4 Bft)
29.07.2015 06:54 12,5 C 11,1 C 87 % 0 lf 1007,5 hPa 0,0 l/m 0 min 0 min 37 W/m 27,2 km/h (4 Bft)
29.07.2015 06:56 12,4 C 11,1 C 87 % 0 lf 1007,5 hPa 0,0 l/m 0 min 0 min 40 W/m 12,6 km/h (3 Bft)
29.07.2015 06:58 12,4 C 11,7 C 87 % 0 lf 1007,5 hPa 0,0 l/m 0 min 0 min 42 W/m 16,7 km/h (3 Bft)
29.07.2015 07:00 12,4 C 11,7 C 87 % 0 lf 1007,5 hPa 0,0 l/m 0 min 0 min 53 W/m 18,8 km/h (3 Bft)
29.07.2015 07:02 12,4 C 11,7 C 87 % 0 lf 1007,6 hPa 0,0 l/m 0 min 0 min 72 W/m 23,0 km/h (4 Bft)
29.07.2015 07:04 12,4 C 11,7 C 87 % 0 lf 1007,5 hPa 0,0 l/m 2 min 0 min 96 W/m 31,4 km/h (5 Bft)
29.07.2015 07:06 12,4 C 11,7 C 87 % 0 lf 1007,6 hPa 0,0 l/m 2 min 0 min 136 W/m 23,0 km/h (4 Bft)
29.07.2015 07:08 12,4 C 11,7 C 88 % 0 lf 1007,6 hPa 0,0 l/m 2 min 0 min 140 W/m 23,0 km/h (4 Bft)
29.07.2015 07:10 12,5 C 11,7 C 88 % 0 lf 1007,7 hPa 0,0 l/m 2 min 0 min 131 W/m 18,8 km/h (3 Bft)
29.07.2015 07:12 12,5 C 11,7 C 88 % 0 lf 1007,7 hPa 0,0 l/m 0 min 0 min 80 W/m 14,6 km/h (3 Bft)
29.07.2015 07:14 12,5 C 11,7 C 88 % 0 lf 1007,7 hPa 0,0 l/m 0 min 0 min 74 W/m 23,0 km/h (4 Bft)
29.07.2015 07:16 12,5 C 11,7 C 88 % 0 lf 1007,7 hPa 0,0 l/m 0 min 0 min 79 W/m 20,9 km/h (4 Bft)
29.07.2015 07:18 12,5 C 11,7 C 88 % 0 lf 1007,8 hPa 0,0 l/m 0 min 0 min 69 W/m 20,9 km/h (4 Bft)
29.07.2015 07:20 12,6 C 11,7 C 88 % 0 lf 1007,8 hPa 0,0 l/m 0 min 0 min 68 W/m 23,0 km/h (4 Bft)
29.07.2015 07:22 12,6 C 11,7 C 88 % 0 lf 1007,7 hPa 0,0 l/m 0 min 0 min 74 W/m 18,8 km/h (3 Bft)
29.07.2015 07:24 12,6 C 11,7 C 88 % 0 lf 1007,8 hPa 0,0 l/m 0 min 0 min 78 W/m 20,9 km/h (4 Bft)
29.07.2015 07:26 12,6 C 11,7 C 88 % 0 lf 1007,7 hPa 0,0 l/m 0 min 0 min 74 W/m 18,8 km/h (3 Bft)
29.07.2015 07:28 12,6 C 12,2 C 88 % 0 lf 1007,7 hPa 0,0 l/m 0 min 0 min 88 W/m 18,8 km/h (3 Bft)
29.07.2015 07:30 12,6 C 12,2 C 88 % 0 lf 1007,7 hPa 0,0 l/m 2 min 0 min 110 W/m 20,9 km/h (4 Bft)
29.07.2015 07:32 12,7 C 12,2 C 88 % 0 lf 1007,7 hPa 0,0 l/m 0 min 0 min 99 W/m 25,1 km/h (4 Bft)
29.07.2015 07:34 12,7 C 12,2 C 88 % 0 lf 1007,7 hPa 0,0 l/m 0 min 0 min 86 W/m 20,9 km/h (4 Bft)
29.07.2015 07:36 12,7 C 12,2 C 88 % 0 lf 1007,7 hPa 0,0 l/m 0 min 0 min 79 W/m 18,8 km/h (3 Bft)
29.07.2015 07:38 12,7 C 12,2 C 88 % 0 lf 1007,7 hPa 0,0 l/m 0 min 0 min 70 W/m 27,2 km/h (4 Bft)
29.07.2015 07:40 12,8 C 12,2 C 88 % 0 lf 1007,7 hPa 0,0 l/m 0 min 0 min 62 W/m 25,1 km/h (4 Bft)
29.07.2015 07:42 12,8 C 12,2 C 88 % 0 lf 1007,7 hPa 0,0 l/m 0 min 0 min 63 W/m 25,1 km/h (4 Bft)
29.07.2015 07:44 12,8 C 12,2 C 88 % 0 lf 1007,7 hPa 0,0 l/m 0 min 0 min 76 W/m 20,9 km/h (4 Bft)
29.07.2015 07:46 12,8 C 12,2 C 88 % 0 lf 1007,7 hPa 0,0 l/m 0 min 0 min 101 W/m 16,7 km/h (3 Bft)
29.07.2015 07:48 12,8 C 12,2 C 88 % 0 lf 1007,7 hPa 0,0 l/m 0 min 0 min 109 W/m 20,9 km/h (4 Bft)
29.07.2015 07:50 12,9 C 12,2 C 88 % 0 lf 1007,6 hPa 0,0 l/m 0 min 0 min 105 W/m 23,0 km/h (4 Bft)
29.07.2015 07:52 12,9 C 12,2 C 88 % 0 lf 1007,6 hPa 0,0 l/m 0 min 0 min 118 W/m 18,8 km/h (3 Bft)
29.07.2015 07:54 12,9 C 12,2 C 88 % 0 lf 1007,6 hPa 0,0 l/m 0 min 0 min 121 W/m 12,6 km/h (3 Bft)
29.07.2015 07:56 12,9 C 12,2 C 88 % 0 lf 1007,6 hPa 0,0 l/m 0 min 0 min 95 W/m 23,0 km/h (4 Bft)
29.07.2015 07:58 13,0 C 12,2 C 88 % 0 lf 1007,5 hPa 0,0 l/m 0 min 0 min 67 W/m 14,6 km/h (3 Bft)
29.07.2015 08:00 13,0 C 12,2 C 88 % 0 lf 1007,5 hPa 0,0 l/m 0 min 0 min 92 W/m 20,9 km/h (4 Bft)
29.07.2015 08:02 13,0 C 12,2 C 88 % 0 lf 1007,5 hPa 0,0 l/m 2 min 0 min 272 W/m 25,1 km/h (4 Bft)
29.07.2015 08:04 13,0 C 12,2 C 88 % 0 lf 1007,5 hPa 0,0 l/m 2 min 0 min 276 W/m 25,1 km/h (4 Bft)
29.07.2015 08:06 13,0 C 12,2 C 88 % 0 lf 1007,6 hPa 0,0 l/m 2 min 0 min 179 W/m 23,0 km/h (4 Bft)
29.07.2015 08:08 13,1 C 12,2 C 88 % 0 lf 1007,7 hPa 0,0 l/m 2 min 0 min 180 W/m 16,7 km/h (3 Bft)
29.07.2015 08:10 13,1 C 12,8 C 88 % 0 lf 1007,6 hPa 0,0 l/m 0 min 0 min 139 W/m 14,6 km/h (3 Bft)
29.07.2015 08:12 13,1 C 12,8 C 88 % 0 lf 1007,6 hPa 0,0 l/m 0 min 0 min 133 W/m 18,8 km/h (3 Bft)
29.07.2015 08:14 13,2 C 12,8 C 88 % 0 lf 1007,5 hPa 0,0 l/m 0 min 0 min 139 W/m 18,8 km/h (3 Bft)
29.07.2015 08:16 13,2 C 12,8 C 88 % 0 lf 1007,6 hPa 0,0 l/m 0 min 0 min 149 W/m 20,9 km/h (4 Bft)
29.07.2015 08:18 13,2 C 12,8 C 88 % 0 lf 1007,5 hPa 0,0 l/m 0 min 0 min 132 W/m 25,1 km/h (4 Bft)
29.07.2015 08:20 13,3 C 12,8 C 87 % 0 lf 1007,5 hPa 0,0 l/m 2 min 0 min 179 W/m 25,1 km/h (4 Bft)
29.07.2015 08:22 13,3 C 12,8 C 87 % 0 lf 1007,5 hPa 0,0 l/m 2 min 0 min 190 W/m 20,9 km/h (4 Bft)
29.07.2015 08:24 13,3 C 12,8 C 87 % 0 lf 1007,5 hPa 0,0 l/m 2 min 0 min 215 W/m 12,6 km/h (3 Bft)
29.07.2015 08:26 13,4 C 13,3 C 87 % 0 lf 1007,5 hPa 0,0 l/m 2 min 0 min 332 W/m 20,9 km/h (4 Bft)
29.07.2015 08:28 13,5 C 13,3 C 88 % 0 lf 1007,6 hPa 0,0 l/m 2 min 0 min 453 W/m 16,7 km/h (3 Bft)
29.07.2015 08:30 13,6 C 13,3 C 88 % 0 lf 1007,6 hPa 0,0 l/m 0 min 0 min 138 W/m 23,0 km/h (4 Bft)
29.07.2015 08:32 13,6 C 13,3 C 87 % 0 lf 1007,6 hPa 0,0 l/m 0 min 0 min 127 W/m 20,9 km/h (4 Bft)
29.07.2015 08:34 13,7 C 13,3 C 87 % 0 lf 1007,7 hPa 0,0 l/m 0 min 0 min 133 W/m 20,9 km/h (4 Bft)
29.07.2015 08:36 13,7 C 13,3 C 87 % 0 lf 1007,6 hPa 0,0 l/m 0 min 0 min 127 W/m 16,7 km/h (3 Bft)
29.07.2015 08:38 13,8 C 13,3 C 87 % 0 lf 1007,6 hPa 0,0 l/m 0 min 0 min 114 W/m 14,6 km/h (3 Bft)
29.07.2015 08:40 13,8 C 13,3 C 87 % 0 lf 1007,6 hPa 0,0 l/m 0 min 0 min 93 W/m 14,6 km/h (3 Bft)
29.07.2015 08:42 13,8 C 13,3 C 87 % 0 lf 1007,6 hPa 0,0 l/m 0 min 0 min 96 W/m 14,6 km/h (3 Bft)
29.07.2015 08:44 13,8 C 13,3 C 86 % 0 lf 1007,6 hPa 0,0 l/m 0 min 0 min 124 W/m 16,7 km/h (3 Bft)
29.07.2015 08:46 13,9 C 13,3 C 86 % 0 lf 1007,6 hPa 0,0 l/m 0 min 0 min 139 W/m 18,8 km/h (3 Bft)
29.07.2015 08:48 13,9 C 13,3 C 86 % 0 lf 1007,5 hPa 0,0 l/m 0 min 0 min 139 W/m 12,6 km/h (3 Bft)
29.07.2015 08:50 13,9 C 13,3 C 86 % 0 lf 1007,6 hPa 0,0 l/m 0 min 0 min 110 W/m 16,7 km/h (3 Bft)
29.07.2015 08:52 13,9 C 13,3 C 86 % 0 lf 1007,6 hPa 0,0 l/m 0 min 0 min 100 W/m 14,6 km/h (3 Bft)
29.07.2015 08:54 14,0 C 13,3 C 86 % 0 lf 1007,7 hPa 0,0 l/m 0 min 0 min 104 W/m 20,9 km/h (4 Bft)
29.07.2015 08:56 14,0 C 13,3 C 86 % 0 lf 1007,6 hPa 0,0 l/m 0 min 0 min 99 W/m 20,9 km/h (4 Bft)
29.07.2015 08:58 14,0 C 13,3 C 85 % 0 lf 1007,6 hPa 0,0 l/m 0 min 0 min 110 W/m 20,9 km/h (4 Bft)
29.07.2015 09:00 14,0 C 13,3 C 86 % 0 lf 1007,5 hPa 0,0 l/m 0 min 0 min 113 W/m 23,0 km/h (4 Bft)
29.07.2015 09:02 14,0 C 13,3 C 86 % 0 lf 1007,5 hPa 0,0 l/m 0 min 0 min 111 W/m 27,2 km/h (4 Bft)
29.07.2015 09:04 14,0 C 13,3 C 85 % 0 lf 1007,6 hPa 0,0 l/m 0 min 0 min 120 W/m 16,7 km/h (3 Bft)
29.07.2015 09:06 14,1 C 13,3 C 85 % 0 lf 1007,5 hPa 0,0 l/m 0 min 0 min 127 W/m 14,6 km/h (3 Bft)
29.07.2015 09:08 14,1 C 13,3 C 85 % 0 lf 1007,4 hPa 0,0 l/m 0 min 0 min 188 W/m 25,1 km/h (4 Bft)
29.07.2015 09:10 14,1 C 13,3 C 85 % 0 lf 1007,5 hPa 0,0 l/m 0 min 0 min 193 W/m 23,0 km/h (4 Bft)
29.07.2015 09:12 14,2 C 13,9 C 85 % 0 lf 1007,5 hPa 0,0 l/m 0 min 0 min 217 W/m 16,7 km/h (3 Bft)
29.07.2015 09:14 14,2 C 13,9 C 85 % 0 lf 1007,5 hPa 0,0 l/m 2 min 0 min 275 W/m 10,5 km/h (2 Bft)
29.07.2015 09:16 14,2 C 14,4 C 85 % 0 lf 1007,5 hPa 0,0 l/m 0 min 0 min 233 W/m 23,0 km/h (4 Bft)
29.07.2015 09:18 14,2 C 13,9 C 85 % 0 lf 1007,6 hPa 0,0 l/m 0 min 0 min 155 W/m 23,0 km/h (4 Bft)
29.07.2015 09:20 14,2 C 13,9 C 85 % 0 lf 1007,5 hPa 0,0 l/m 0 min 0 min 118 W/m 33,5 km/h (5 Bft)
29.07.2015 09:22 14,2 C 13,9 C 85 % 0 lf 1007,6 hPa 0,0 l/m 0 min 0 min 143 W/m 23,0 km/h (4 Bft)
29.07.2015 09:24 14,3 C 13,9 C 84 % 0 lf 1007,7 hPa 0,0 l/m 0 min 0 min 195 W/m 35,6 km/h (5 Bft)
29.07.2015 09:26 14,3 C 13,9 C 84 % 0 lf 1007,6 hPa 0,0 l/m 2 min 0 min 269 W/m 25,1 km/h (4 Bft)
29.07.2015 09:28 14,3 C 13,9 C 84 % 0 lf 1007,6 hPa 0,0 l/m 2 min 0 min 280 W/m 23,0 km/h (4 Bft)
29.07.2015 09:30 14,4 C 13,9 C 84 % 0 lf 1007,6 hPa 0,0 l/m 2 min 0 min 278 W/m 20,9 km/h (4 Bft)
29.07.2015 09:32 14,4 C 13,9 C 84 % 0 lf 1007,6 hPa 0,0 l/m 0 min 0 min 168 W/m 29,3 km/h (5 Bft)
29.07.2015 09:34 14,4 C 13,9 C 84 % 0 lf 1007,5 hPa 0,0 l/m 0 min 0 min 216 W/m 25,1 km/h (4 Bft)
29.07.2015 09:36 14,5 C 13,9 C 83 % 0 lf 1007,5 hPa 0,0 l/m 0 min 0 min 251 W/m 33,5 km/h (5 Bft)
29.07.2015 09:38 14,5 C 13,9 C 84 % 0 lf 1007,6 hPa 0,0 l/m 2 min 0 min 331 W/m 23,0 km/h (4 Bft)
29.07.2015 09:40 14,6 C 13,9 C 84 % 0 lf 1007,5 hPa 0,0 l/m 2 min 0 min 359 W/m 29,3 km/h (5 Bft)
29.07.2015 09:42 14,6 C 14,4 C 84 % 0 lf 1007,6 hPa 0,0 l/m 2 min 0 min 392 W/m 23,0 km/h (4 Bft)
29.07.2015 09:44 14,7 C 14,4 C 84 % 0 lf 1007,5 hPa 0,0 l/m 2 min 0 min 647 W/m 18,8 km/h (3 Bft)
29.07.2015 09:46 14,8 C 15,0 C 84 % 0 lf 1007,5 hPa 0,0 l/m 2 min 0 min 682 W/m 16,7 km/h (3 Bft)
29.07.2015 09:48 14,9 C 15,0 C 84 % 0 lf 1007,5 hPa 0,0 l/m 2 min 0 min 322 W/m 16,7 km/h (3 Bft)
29.07.2015 09:50 15,1 C 16,1 C 83 % 0 lf 1007,5 hPa 0,0 l/m 2 min 0 min 310 W/m 18,8 km/h (3 Bft)
29.07.2015 09:52 15,2 C 17,2 C 84 % 0 lf 1007,5 hPa 0,0 l/m 2 min 0 min 738 W/m 20,9 km/h (4 Bft)
29.07.2015 09:54 15,4 C 17,2 C 83 % 0 lf 1007,5 hPa 0,0 l/m 2 min 0 min 571 W/m 16,7 km/h (3 Bft)
29.07.2015 09:56 15,6 C 17,2 C 83 % 0 lf 1007,4 hPa 0,0 l/m 2 min 0 min 464 W/m 20,9 km/h (4 Bft)
29.07.2015 09:58 15,6 C 16,7 C 82 % 0 lf 1007,4 hPa 0,0 l/m 2 min 0 min 320 W/m 20,9 km/h (4 Bft)
29.07.2015 10:00 15,7 C 16,1 C 82 % 0 lf 1007,5 hPa 0,0 l/m 2 min 0 min 322 W/m 27,2 km/h (4 Bft)
29.07.2015 10:02 15,8 C 15,6 C 80 % 0 lf 1007,5 hPa 0,0 l/m 0 min 0 min 125 W/m 27,2 km/h (4 Bft)
29.07.2015 10:04 15,8 C 15,0 C 80 % 0 lf 1007,5 hPa 0,0 l/m 0 min 0 min 140 W/m 23,0 km/h (4 Bft)
29.07.2015 10:06 15,8 C 14,4 C 79 % 0 lf 1007,5 hPa 0,0 l/m 0 min 0 min 159 W/m 33,5 km/h (5 Bft)
29.07.2015 10:08 15,7 C 15,0 C 79 % 0 lf 1007,5 hPa 0,0 l/m 0 min 0 min 175 W/m 25,1 km/h (4 Bft)
29.07.2015 10:10 15,7 C 14,4 C 79 % 0 lf 1007,5 hPa 0,0 l/m 0 min 0 min 165 W/m 20,9 km/h (4 Bft)
29.07.2015 10:12 15,7 C 14,4 C 79 % 0 lf 1007,4 hPa 0,0 l/m 0 min 0 min 157 W/m 20,9 km/h (4 Bft)
29.07.2015 10:14 15,6 C 15,6 C 79 % 0 lf 1007,5 hPa 0,0 l/m 0 min 0 min 162 W/m 18,8 km/h (3 Bft)
29.07.2015 10:16 15,7 C 16,7 C 80 % 0 lf 1007,4 hPa 0,0 l/m 2 min 0 min 320 W/m 20,9 km/h (4 Bft)
29.07.2015 10:18 15,7 C 17,8 C 80 % 0 lf 1007,5 hPa 0,0 l/m 2 min 0 min 627 W/m 18,8 km/h (3 Bft)
29.07.2015 10:20 15,8 C 18,3 C 81 % 0 lf 1007,4 hPa 0,0 l/m 2 min 0 min 586 W/m 18,8 km/h (3 Bft)
29.07.2015 10:22 15,9 C 18,3 C 81 % 0 lf 1007,4 hPa 0,0 l/m 2 min 0 min 823 W/m 16,7 km/h (3 Bft)
29.07.2015 10:24 16,0 C 19,4 C 81 % 0 lf 1007,4 hPa 0,0 l/m 2 min 0 min 823 W/m 23,0 km/h (4 Bft)
29.07.2015 10:26 16,2 C 18,9 C 80 % 0 lf 1007,3 hPa 0,0 l/m 2 min 0 min 592 W/m 20,9 km/h (4 Bft)
29.07.2015 10:28 16,2 C 18,9 C 79 % 0 lf 1007,3 hPa 0,0 l/m 2 min 0 min 427 W/m 29,3 km/h (5 Bft)
29.07.2015 10:30 16,3 C 19,4 C 78 % 0 lf 1007,3 hPa 0,0 l/m 2 min 0 min 442 W/m 27,2 km/h (4 Bft)
29.07.2015 10:32 16,4 C 20,6 C 77 % 0 lf 1007,2 hPa 0,0 l/m 2 min 0 min 790 W/m 23,0 km/h (4 Bft)
29.07.2015 10:34 16,6 C 19,4 C 77 % 0 lf 1007,2 hPa 0,0 l/m 2 min 0 min 765 W/m 33,5 km/h (5 Bft)
29.07.2015 10:36 16,6 C 17,8 C 75 % 0 lf 1007,2 hPa 0,0 l/m 2 min 0 min 507 W/m 33,5 km/h (5 Bft)
29.07.2015 10:38 16,6 C 17,8 C 75 % 0 lf 1007,1 hPa 0,0 l/m 0 min 0 min 255 W/m 23,0 km/h (4 Bft)
29.07.2015 10:40 16,7 C 18,3 C 75 % 0 lf 1007,3 hPa 0,0 l/m 2 min 0 min 444 W/m 31,4 km/h (5 Bft)
29.07.2015 10:42 16,7 C 18,3 C 74 % 0 lf 1007,2 hPa 0,0 l/m 2 min 0 min 826 W/m 27,2 km/h (4 Bft)
29.07.2015 10:44 16,9 C 18,3 C 75 % 0 lf 1007,1 hPa 0,0 l/m 2 min 0 min 825 W/m 29,3 km/h (5 Bft)
29.07.2015 10:46 17,0 C 18,3 C 74 % 0 lf 1007,1 hPa 0,0 l/m 2 min 0 min 858 W/m 35,6 km/h (5 Bft)
29.07.2015 10:48 17,2 C 17,8 C 73 % 0 lf 1007,1 hPa 0,0 l/m 2 min 0 min 848 W/m 27,2 km/h (4 Bft)
29.07.2015 10:50 17,3 C 17,8 C 73 % 0 lf 1007,1 hPa 0,0 l/m 2 min 0 min 821 W/m 23,0 km/h (4 Bft)
29.07.2015 10:52 17,4 C 17,8 C 71 % 0 lf 1007,1 hPa 0,0 l/m 2 min 0 min 821 W/m 27,2 km/h (4 Bft)
29.07.2015 10:54 17,5 C 17,8 C 71 % 0 lf 1007,1 hPa 0,0 l/m 2 min 0 min 628 W/m 27,2 km/h (4 Bft)
29.07.2015 10:56 17,6 C 19,4 C 71 % 0 lf 1007,0 hPa 0,0 l/m 2 min 0 min 725 W/m 29,3 km/h (5 Bft)
29.07.2015 10:58 17,7 C 20,0 C 71 % 0 lf 1007,0 hPa 0,0 l/m 2 min 0 min 836 W/m 35,6 km/h (5 Bft)
29.07.2015 11:00 17,8 C 19,4 C 69 % 0 lf 1007,1 hPa 0,0 l/m 2 min 0 min 844 W/m 33,5 km/h (5 Bft)
29.07.2015 11:02 17,9 C 18,9 C 69 % 0 lf 1007,1 hPa 0,0 l/m 2 min 0 min 476 W/m 27,2 km/h (4 Bft)
29.07.2015 11:04 18,0 C 18,9 C 70 % 0 lf 1007,0 hPa 0,0 l/m 2 min 0 min 755 W/m 23,0 km/h (4 Bft)
29.07.2015 11:06 18,1 C 20,0 C 70 % 0 lf 1007,0 hPa 0,0 l/m 2 min 0 min 901 W/m 31,4 km/h (5 Bft)
29.07.2015 11:08 18,2 C 19,4 C 69 % 0 lf 1007,0 hPa 0,0 l/m 2 min 0 min 923 W/m 29,3 km/h (5 Bft)
29.07.2015 11:10 18,3 C 18,3 C 67 % 0 lf 1007,1 hPa 0,0 l/m 2 min 0 min 660 W/m 31,4 km/h (5 Bft)
29.07.2015 11:12 18,3 C 17,8 C 67 % 0 lf 1007,0 hPa 0,0 l/m 0 min 0 min 264 W/m 35,6 km/h (5 Bft)
29.07.2015 11:14 18,2 C 17,2 C 66 % 0 lf 1007,0 hPa 0,0 l/m 0 min 0 min 237 W/m 29,3 km/h (5 Bft)
29.07.2015 11:16 18,2 C 16,7 C 66 % 0 lf 1007,1 hPa 0,0 l/m 0 min 0 min 238 W/m 27,2 km/h (4 Bft)
29.07.2015 11:18 18,1 C 16,7 C 66 % 0 lf 1007,1 hPa 0,0 l/m 0 min 0 min 299 W/m 20,9 km/h (4 Bft)
29.07.2015 11:20 18,0 C 17,2 C 66 % 0 lf 1007,1 hPa 0,0 l/m 0 min 0 min 329 W/m 20,9 km/h (4 Bft)
29.07.2015 11:22 18,0 C 16,7 C 67 % 0 lf 1007,1 hPa 0,0 l/m 0 min 0 min 248 W/m 18,8 km/h (3 Bft)
29.07.2015 11:24 17,9 C 16,1 C 67 % 0 lf 1007,1 hPa 0,0 l/m 0 min 0 min 149 W/m 23,0 km/h (4 Bft)
29.07.2015 11:26 17,8 C 16,1 C 67 % 0 lf 1007,0 hPa 0,0 l/m 0 min 0 min 133 W/m 29,3 km/h (5 Bft)
29.07.2015 11:28 17,7 C 15,6 C 66 % 0 lf 1007,1 hPa 0,0 l/m 0 min 0 min 129 W/m 29,3 km/h (5 Bft)
29.07.2015 11:30 17,5 C 15,0 C 66 % 0 lf 1007,2 hPa 0,0 l/m 0 min 0 min 138 W/m 29,3 km/h (5 Bft)
29.07.2015 11:32 17,4 C 15,0 C 67 % 0 lf 1007,2 hPa 0,0 l/m 0 min 0 min 151 W/m 23,0 km/h (4 Bft)
29.07.2015 11:34 17,3 C 16,1 C 68 % 0 lf 1007,1 hPa 0,0 l/m 0 min 0 min 160 W/m 23,0 km/h (4 Bft)
29.07.2015 11:36 17,3 C 16,7 C 70 % 0 lf 1007,1 hPa 0,0 l/m 0 min 0 min 167 W/m 14,6 km/h (3 Bft)
29.07.2015 11:38 17,4 C 16,1 C 69 % 0 lf 1007,1 hPa 0,0 l/m 0 min 0 min 152 W/m 18,8 km/h (3 Bft)
29.07.2015 11:40 17,4 C 17,2 C 69 % 0 lf 1007,0 hPa 0,0 l/m 0 min 0 min 137 W/m 27,2 km/h (4 Bft)
29.07.2015 11:42 17,4 C 18,9 C 69 % 0 lf 1007,1 hPa 0,0 l/m 2 min 0 min 856 W/m 23,0 km/h (4 Bft)
29.07.2015 11:44 17,6 C 20,0 C 69 % 0 lf 1007,1 hPa 0,0 l/m 2 min 0 min 885 W/m 27,2 km/h (4 Bft)
29.07.2015 11:46 17,7 C 20,0 C 66 % 0 lf 1007,0 hPa 0,0 l/m 2 min 0 min 882 W/m 37,7 km/h (5 Bft)
29.07.2015 11:48 17,9 C 20,6 C 65 % 0 lf 1007,0 hPa 0,0 l/m 2 min 0 min 908 W/m 48,1 km/h (6 Bft)
29.07.2015 11:50 18,1 C 20,6 C 65 % 0 lf 1007,0 hPa 0,0 l/m 2 min 0 min 930 W/m 31,4 km/h (5 Bft)
29.07.2015 11:52 18,2 C 20,6 C 65 % 0 lf 1006,9 hPa 0,0 l/m 2 min 0 min 916 W/m 29,3 km/h (5 Bft)
29.07.2015 11:54 18,3 C 18,9 C 64 % 0 lf 1006,9 hPa 0,0 l/m 0 min 0 min 248 W/m 41,8 km/h (6 Bft)
29.07.2015 11:56 18,3 C 18,9 C 64 % 0 lf 1006,9 hPa 0,0 l/m 0 min 0 min 228 W/m 20,9 km/h (4 Bft)
29.07.2015 11:58 18,4 C 20,0 C 63 % 0 lf 1006,9 hPa 0,0 l/m 2 min 0 min 843 W/m 43,9 km/h (6 Bft)
29.07.2015 12:00 18,4 C 19,4 C 62 % 0 lf 1006,9 hPa 0,0 l/m 2 min 0 min 931 W/m 35,6 km/h (5 Bft)
29.07.2015 12:02 18,5 C 20,0 C 62 % 0 lf 1006,8 hPa 0,0 l/m 2 min 0 min 916 W/m 41,8 km/h (6 Bft)
29.07.2015 12:05 18,7 C 19,4 C 62 % 0 lf 1006,9 hPa 0,0 l/m 2 min 0 min 912 W/m 35,6 km/h (5 Bft)
29.07.2015 12:06 18,7 C 19,4 C 62 % 0 lf 1006,9 hPa 0,0 l/m 1 min 0 min 912 W/m 35,6 km/h (5 Bft)
29.07.2015 12:08 18,7 C 18,9 C 60 % 0 lf 1006,9 hPa 0,0 l/m 2 min 0 min 495 W/m 41,8 km/h (6 Bft)
29.07.2015 12:10 18,7 C 18,3 C 60 % 0 lf 1006,9 hPa 0,0 l/m 0 min 0 min 346 W/m 31,4 km/h (5 Bft)
29.07.2015 12:12 18,7 C 18,3 C 61 % 0 lf 1006,9 hPa 0,0 l/m 0 min 0 min 319 W/m 33,5 km/h (5 Bft)
29.07.2015 12:14 18,6 C 18,3 C 61 % 0 lf 1007,0 hPa 0,0 l/m 0 min 0 min 283 W/m 29,3 km/h (5 Bft)
29.07.2015 12:16 18,6 C 17,2 C 62 % 0 lf 1007,5 hPa 0,0 l/m 0 min 0 min 117 W/m 35,6 km/h (5 Bft)
29.07.2015 12:18 18,4 C 13,9 C 62 % 15 lf 1007,7 hPa 0,0 l/m 0 min 2 min 54 W/m 41,8 km/h (6 Bft)
29.07.2015 12:20 18,0 C 11,7 C 67 % 15 lf 1007,8 hPa 0,4 l/m 0 min 2 min 44 W/m 48,1 km/h (6 Bft)
29.07.2015 12:22 17,5 C 11,1 C 68 % 15 lf 1007,8 hPa 0,0 l/m 0 min 2 min 49 W/m 37,7 km/h (5 Bft)
29.07.2015 12:24 17,1 C 10,6 C 69 % 15 lf 1007,9 hPa 0,0 l/m 0 min 2 min 69 W/m 27,2 km/h (4 Bft)
29.07.2015 12:26 16,7 C 10,6 C 70 % 15 lf 1007,9 hPa 0,0 l/m 0 min 2 min 101 W/m 25,1 km/h (4 Bft)
29.07.2015 12:28 16,4 C 10,6 C 71 % 15 lf 1007,9 hPa 0,0 l/m 0 min 2 min 151 W/m 27,2 km/h (4 Bft)
29.07.2015 12:30 16,0 C 10,6 C 72 % 15 lf 1007,9 hPa 0,0 l/m 0 min 2 min 186 W/m 25,1 km/h (4 Bft)
29.07.2015 12:32 15,6 C 11,1 C 73 % 15 lf 1008,0 hPa 0,0 l/m 0 min 0 min 228 W/m 20,9 km/h (4 Bft)
29.07.2015 12:34 15,4 C 11,1 C 74 % 15 lf 1008,0 hPa 0,0 l/m 0 min 0 min 237 W/m 14,6 km/h (3 Bft)
29.07.2015 12:36 15,2 C 12,8 C 76 % 15 lf 1007,9 hPa 0,0 l/m 0 min 0 min 251 W/m 18,8 km/h (3 Bft)
29.07.2015 12:38 15,1 C 13,3 C 78 % 15 lf 1007,9 hPa 0,0 l/m 2 min 0 min 825 W/m 20,9 km/h (4 Bft)
29.07.2015 12:40 14,9 C 12,8 C 79 % 15 lf 1007,8 hPa 0,0 l/m 2 min 0 min 863 W/m 20,9 km/h (4 Bft)
29.07.2015 12:42 14,8 C 12,2 C 79 % 15 lf 1007,9 hPa 0,0 l/m 0 min 0 min 220 W/m 16,7 km/h (3 Bft)
29.07.2015 12:44 14,8 C 13,3 C 79 % 15 lf 1007,8 hPa 0,0 l/m 0 min 0 min 220 W/m 20,9 km/h (4 Bft)
29.07.2015 12:46 14,7 C 13,9 C 80 % 15 lf 1007,9 hPa 0,0 l/m 2 min 0 min 581 W/m 23,0 km/h (4 Bft)
29.07.2015 12:48 14,8 C 14,4 C 81 % 15 lf 1007,9 hPa 0,0 l/m 2 min 0 min 863 W/m 27,2 km/h (4 Bft)
29.07.2015 12:50 14,9 C 15,0 C 82 % 15 lf 1008,0 hPa 0,0 l/m 2 min 0 min 845 W/m 18,8 km/h (3 Bft)
29.07.2015 12:52 15,2 C 15,6 C 83 % 15 lf 1008,0 hPa 0,0 l/m 2 min 0 min 820 W/m 20,9 km/h (4 Bft)
29.07.2015 12:54 15,4 C 15,6 C 84 % 15 lf 1007,9 hPa 0,0 l/m 2 min 0 min 762 W/m 16,7 km/h (3 Bft)
29.07.2015 12:56 15,5 C 15,0 C 83 % 15 lf 1008,0 hPa 0,0 l/m 2 min 0 min 866 W/m 20,9 km/h (4 Bft)
29.07.2015 12:58 15,7 C 15,0 C 82 % 15 lf 1008,0 hPa 0,0 l/m 2 min 0 min 886 W/m 20,9 km/h (4 Bft)
29.07.2015 13:00 15,9 C 15,0 C 81 % 14 lf 1008,1 hPa 0,0 l/m 2 min 0 min 871 W/m 25,1 km/h (4 Bft)
29.07.2015 13:02 16,1 C 15,0 C 80 % 4 lf 1008,0 hPa 0,0 l/m 2 min 0 min 830 W/m 33,5 km/h (5 Bft)
29.07.2015 13:04 16,2 C 15,6 C 78 % 0 lf 1008,0 hPa 0,0 l/m 2 min 0 min 947 W/m 29,3 km/h (5 Bft)
29.07.2015 13:06 16,3 C 15,6 C 77 % 0 lf 1008,1 hPa 0,0 l/m 2 min 0 min 834 W/m 31,4 km/h (5 Bft)
29.07.2015 13:08 16,4 C 15,6 C 76 % 0 lf 1008,1 hPa 0,0 l/m 0 min 0 min 342 W/m 29,3 km/h (5 Bft)
29.07.2015 13:10 16,4 C 15,0 C 76 % 0 lf 1008,1 hPa 0,0 l/m 0 min 0 min 327 W/m 23,0 km/h (4 Bft)
29.07.2015 13:12 16,4 C 15,0 C 75 % 0 lf 1008,3 hPa 0,0 l/m 0 min 0 min 307 W/m 33,5 km/h (5 Bft)
29.07.2015 13:14 16,4 C 14,4 C 74 % 0 lf 1008,3 hPa 0,0 l/m 0 min 0 min 259 W/m 23,0 km/h (4 Bft)
29.07.2015 13:16 16,5 C 15,6 C 75 % 0 lf 1008,2 hPa 0,0 l/m 2 min 0 min 703 W/m 18,8 km/h (3 Bft)
29.07.2015 13:18 16,6 C 16,1 C 77 % 0 lf 1008,2 hPa 0,0 l/m 2 min 0 min 978 W/m 27,2 km/h (4 Bft)
29.07.2015 13:20 16,8 C 16,7 C 76 % 0 lf 1008,2 hPa 0,0 l/m 2 min 0 min 1015 W/m 37,7 km/h (5 Bft)
29.07.2015 13:22 16,9 C 17,2 C 75 % 0 lf 1008,1 hPa 0,0 l/m 2 min 0 min 1009 W/m 25,1 km/h (4 Bft)
29.07.2015 13:24 17,2 C 17,2 C 75 % 0 lf 1008,2 hPa 0,0 l/m 2 min 0 min 996 W/m 25,1 km/h (4 Bft)
29.07.2015 13:26 17,3 C 17,2 C 71 % 0 lf 1008,2 hPa 0,0 l/m 2 min 0 min 1004 W/m 20,9 km/h (4 Bft)
29.07.2015 13:28 17,5 C 17,2 C 71 % 0 lf 1008,2 hPa 0,0 l/m 2 min 0 min 898 W/m 33,5 km/h (5 Bft)
29.07.2015 13:30 17,6 C 16,7 C 68 % 0 lf 1008,2 hPa 0,0 l/m 2 min 0 min 696 W/m 29,3 km/h (5 Bft)
29.07.2015 13:32 17,7 C 16,7 C 67 % 0 lf 1008,3 hPa 0,0 l/m 2 min 0 min 547 W/m 29,3 km/h (5 Bft)
29.07.2015 13:34 17,8 C 17,2 C 68 % 0 lf 1008,3 hPa 0,0 l/m 2 min 0 min 807 W/m 29,3 km/h (5 Bft)
29.07.2015 13:36 17,8 C 17,2 C 67 % 0 lf 1008,3 hPa 0,0 l/m 2 min 0 min 712 W/m 25,1 km/h (4 Bft)
29.07.2015 13:38 17,9 C 17,8 C 69 % 0 lf 1008,4 hPa 0,0 l/m 2 min 0 min 739 W/m 27,2 km/h (4 Bft)
29.07.2015 13:40 18,0 C 17,8 C 67 % 0 lf 1008,4 hPa 0,0 l/m 2 min 0 min 690 W/m 23,0 km/h (4 Bft)
29.07.2015 13:42 18,0 C 16,7 C 65 % 0 lf 1008,4 hPa 0,0 l/m 0 min 0 min 285 W/m 29,3 km/h (5 Bft)
29.07.2015 13:44 17,9 C 16,1 C 63 % 0 lf 1008,5 hPa 0,0 l/m 0 min 0 min 303 W/m 33,5 km/h (5 Bft)
29.07.2015 13:46 17,8 C 16,7 C 64 % 0 lf 1008,4 hPa 0,0 l/m 0 min 0 min 360 W/m 31,4 km/h (5 Bft)
29.07.2015 13:48 17,7 C 16,7 C 64 % 0 lf 1008,2 hPa 0,0 l/m 2 min 0 min 440 W/m 27,2 km/h (4 Bft)
29.07.2015 13:50 17,6 C 16,7 C 65 % 0 lf 1008,3 hPa 0,0 l/m 2 min 0 min 538 W/m 20,9 km/h (4 Bft)
29.07.2015 13:52 17,6 C 16,7 C 65 % 0 lf 1008,2 hPa 0,0 l/m 2 min 0 min 459 W/m 16,7 km/h (3 Bft)
29.07.2015 13:54 17,5 C 16,7 C 66 % 0 lf 1008,3 hPa 0,0 l/m 0 min 0 min 405 W/m 25,1 km/h (4 Bft)
29.07.2015 13:56 17,4 C 16,7 C 66 % 3 lf 1008,3 hPa 0,0 l/m 0 min 0 min 343 W/m 29,3 km/h (5 Bft)
29.07.2015 13:58 17,4 C 15,0 C 68 % 15 lf 1008,4 hPa 0,0 l/m 0 min 2 min 356 W/m 18,8 km/h (3 Bft)
29.07.2015 14:00 17,3 C 13,3 C 70 % 15 lf 1008,4 hPa 0,2 l/m 0 min 2 min 332 W/m 31,4 km/h (5 Bft)
29.07.2015 14:02 17,1 C 12,8 C 70 % 15 lf 1008,4 hPa 0,0 l/m 0 min 2 min 237 W/m 20,9 km/h (4 Bft)
29.07.2015 14:04 16,9 C 12,2 C 71 % 15 lf 1008,5 hPa 0,0 l/m 0 min 2 min 197 W/m 25,1 km/h (4 Bft)
29.07.2015 14:06 16,7 C 12,2 C 71 % 15 lf 1008,6 hPa 0,0 l/m 0 min 2 min 172 W/m 33,5 km/h (5 Bft)
29.07.2015 14:08 16,4 C 11,7 C 71 % 15 lf 1008,5 hPa 0,0 l/m 0 min 2 min 148 W/m 29,3 km/h (5 Bft)
29.07.2015 14:10 16,2 C 11,7 C 72 % 15 lf 1008,6 hPa 0,0 l/m 0 min 2 min 180 W/m 31,4 km/h (5 Bft)
29.07.2015 14:12 16,0 C 11,7 C 73 % 15 lf 1008,5 hPa 0,0 l/m 0 min 2 min 222 W/m 27,2 km/h (4 Bft)
29.07.2015 14:14 15,8 C 11,7 C 74 % 15 lf 1008,5 hPa 0,0 l/m 0 min 2 min 227 W/m 29,3 km/h (5 Bft)
29.07.2015 14:16 15,5 C 11,7 C 75 % 15 lf 1008,6 hPa 0,0 l/m 0 min 2 min 199 W/m 25,1 km/h (4 Bft)
29.07.2015 14:18 15,3 C 11,1 C 75 % 15 lf 1008,5 hPa 0,2 l/m 0 min 2 min 174 W/m 37,7 km/h (5 Bft)
29.07.2015 14:20 15,0 C 11,1 C 76 % 15 lf 1008,5 hPa 0,0 l/m 0 min 2 min 168 W/m 33,5 km/h (5 Bft)
29.07.2015 14:22 14,7 C 11,1 C 78 % 15 lf 1008,5 hPa 0,0 l/m 0 min 2 min 188 W/m 27,2 km/h (4 Bft)
29.07.2015 14:24 14,6 C 11,1 C 79 % 15 lf 1008,5 hPa 0,2 l/m 0 min 2 min 209 W/m 25,1 km/h (4 Bft)
29.07.2015 14:26 14,4 C 11,7 C 80 % 15 lf 1008,4 hPa 0,0 l/m 0 min 2 min 219 W/m 16,7 km/h (3 Bft)
29.07.2015 14:28 14,3 C 11,7 C 81 % 15 lf 1008,3 hPa 0,0 l/m 0 min 2 min 264 W/m 12,6 km/h (3 Bft)
29.07.2015 14:30 14,2 C 12,2 C 82 % 15 lf 1008,3 hPa 0,0 l/m 0 min 2 min 366 W/m 16,7 km/h (3 Bft)
29.07.2015 14:32 14,2 C 11,7 C 83 % 15 lf 1008,3 hPa 0,0 l/m 0 min 0 min 244 W/m 16,7 km/h (3 Bft)
29.07.2015 14:34 14,2 C 12,2 C 83 % 15 lf 1008,4 hPa 0,0 l/m 0 min 0 min 244 W/m 18,8 km/h (3 Bft)
29.07.2015 14:36 14,2 C 12,8 C 84 % 15 lf 1008,4 hPa 0,0 l/m 2 min 0 min 539 W/m 23,0 km/h (4 Bft)
29.07.2015 14:38 14,3 C 12,8 C 85 % 15 lf 1008,4 hPa 0,0 l/m 2 min 0 min 877 W/m 23,0 km/h (4 Bft)
29.07.2015 14:40 14,4 C 12,8 C 85 % 15 lf 1008,4 hPa 0,0 l/m 2 min 0 min 506 W/m 18,8 km/h (3 Bft)
29.07.2015 14:42 14,6 C 13,3 C 86 % 15 lf 1008,3 hPa 0,0 l/m 2 min 0 min 446 W/m 25,1 km/h (4 Bft)
29.07.2015 14:44 14,7 C 13,9 C 86 % 15 lf 1008,4 hPa 0,0 l/m 2 min 0 min 858 W/m 16,7 km/h (3 Bft)
29.07.2015 14:46 14,9 C 13,9 C 86 % 15 lf 1008,4 hPa 0,0 l/m 2 min 0 min 833 W/m 25,1 km/h (4 Bft)
29.07.2015 14:48 15,1 C 13,3 C 85 % 15 lf 1008,3 hPa 0,0 l/m 2 min 0 min 854 W/m 27,2 km/h (4 Bft)
29.07.2015 14:50 15,2 C 13,9 C 84 % 15 lf 1008,2 hPa 0,0 l/m 2 min 0 min 900 W/m 25,1 km/h (4 Bft)
29.07.2015 14:52 15,4 C 13,9 C 83 % 15 lf 1008,2 hPa 0,0 l/m 2 min 0 min 953 W/m 25,1 km/h (4 Bft)
29.07.2015 14:54 15,6 C 13,9 C 82 % 15 lf 1008,2 hPa 0,0 l/m 2 min 0 min 885 W/m 20,9 km/h (4 Bft)
29.07.2015 14:56 15,8 C 14,4 C 83 % 14 lf 1008,2 hPa 0,0 l/m 2 min 0 min 935 W/m 16,7 km/h (3 Bft)
29.07.2015 14:58 15,9 C 14,4 C 82 % 9 lf 1008,2 hPa 0,0 l/m 2 min 0 min 735 W/m 23,0 km/h (4 Bft)
29.07.2015 15:00 16,1 C 13,9 C 80 % 3 lf 1008,2 hPa 0,0 l/m 0 min 0 min 326 W/m 23,0 km/h (4 Bft)
29.07.2015 15:02 16,2 C 13,9 C 79 % 0 lf 1008,2 hPa 0,0 l/m 0 min 0 min 359 W/m 16,7 km/h (3 Bft)
29.07.2015 15:04 16,4 C 15,0 C 80 % 0 lf 1008,2 hPa 0,0 l/m 0 min 0 min 359 W/m 18,8 km/h (3 Bft)
29.07.2015 15:06 16,6 C 15,0 C 80 % 0 lf 1008,2 hPa 0,0 l/m 0 min 0 min 367 W/m 16,7 km/h (3 Bft)
29.07.2015 15:08 16,7 C 15,0 C 78 % 0 lf 1008,1 hPa 0,0 l/m 2 min 0 min 434 W/m 25,1 km/h (4 Bft)
29.07.2015 15:10 16,9 C 15,0 C 75 % 0 lf 1008,2 hPa 0,0 l/m 2 min 0 min 434 W/m 27,2 km/h (4 Bft)
29.07.2015 15:12 17,1 C 15,0 C 74 % 0 lf 1008,2 hPa 0,0 l/m 2 min 0 min 437 W/m 18,8 km/h (3 Bft)
29.07.2015 15:14 17,3 C 15,0 C 74 % 0 lf 1008,2 hPa 0,0 l/m 2 min 0 min 415 W/m 23,0 km/h (4 Bft)
29.07.2015 15:16 17,4 C 15,0 C 72 % 0 lf 1008,2 hPa 0,0 l/m 0 min 0 min 318 W/m 23,0 km/h (4 Bft)
29.07.2015 15:18 17,4 C 14,4 C 72 % 0 lf 1008,3 hPa 0,0 l/m 0 min 0 min 285 W/m 29,3 km/h (5 Bft)
29.07.2015 15:20 17,4 C 14,4 C 71 % 0 lf 1008,2 hPa 0,0 l/m 0 min 0 min 275 W/m 23,0 km/h (4 Bft)
29.07.2015 15:22 17,4 C 14,4 C 71 % 0 lf 1008,2 hPa 0,0 l/m 0 min 0 min 288 W/m 27,2 km/h (4 Bft)
29.07.2015 15:24 17,5 C 15,0 C 72 % 0 lf 1008,2 hPa 0,0 l/m 0 min 0 min 321 W/m 23,0 km/h (4 Bft)
29.07.2015 15:26 17,6 C 15,6 C 72 % 0 lf 1008,2 hPa 0,0 l/m 2 min 0 min 615 W/m 20,9 km/h (4 Bft)
29.07.2015 15:28 17,6 C 15,0 C 72 % 0 lf 1008,2 hPa 0,0 l/m 2 min 0 min 385 W/m 23,0 km/h (4 Bft)
29.07.2015 15:30 17,7 C 15,0 C 71 % 0 lf 1008,1 hPa 0,0 l/m 0 min 0 min 299 W/m 18,8 km/h (3 Bft)
29.07.2015 15:32 17,7 C 15,6 C 71 % 0 lf 1008,2 hPa 0,0 l/m 2 min 0 min 459 W/m 27,2 km/h (4 Bft)
29.07.2015 15:34 17,8 C 16,1 C 72 % 0 lf 1008,1 hPa 0,0 l/m 2 min 0 min 913 W/m 20,9 km/h (4 Bft)
29.07.2015 15:36 18,0 C 16,1 C 71 % 0 lf 1008,2 hPa 0,0 l/m 2 min 0 min 900 W/m 16,7 km/h (3 Bft)
29.07.2015 15:38 18,1 C 16,7 C 71 % 0 lf 1008,3 hPa 0,0 l/m 2 min 0 min 907 W/m 25,1 km/h (4 Bft)
29.07.2015 15:40 18,3 C 16,7 C 72 % 0 lf 1008,1 hPa 0,0 l/m 2 min 0 min 895 W/m 14,6 km/h (3 Bft)
29.07.2015 15:42 18,5 C 17,2 C 71 % 0 lf 1008,2 hPa 0,0 l/m 2 min 0 min 911 W/m 29,3 km/h (5 Bft)
29.07.2015 15:44 18,7 C 17,2 C 69 % 0 lf 1008,1 hPa 0,0 l/m 2 min 0 min 909 W/m 31,4 km/h (5 Bft)
29.07.2015 15:46 18,8 C 17,2 C 69 % 0 lf 1008,3 hPa 0,0 l/m 2 min 0 min 397 W/m 33,5 km/h (5 Bft)
29.07.2015 15:48 18,9 C 18,3 C 68 % 0 lf 1008,1 hPa 0,0 l/m 2 min 0 min 660 W/m 39,7 km/h (6 Bft)
29.07.2015 15:50 19,1 C 18,9 C 69 % 0 lf 1008,2 hPa 0,0 l/m 2 min 0 min 884 W/m 33,5 km/h (5 Bft)
29.07.2015 15:52 19,2 C 18,3 C 67 % 0 lf 1008,2 hPa 0,0 l/m 2 min 0 min 571 W/m 33,5 km/h (5 Bft)
29.07.2015 15:54 19,2 C 17,8 C 65 % 0 lf 1008,3 hPa 0,0 l/m 0 min 0 min 212 W/m 37,7 km/h (5 Bft)
29.07.2015 15:56 19,2 C 17,2 C 66 % 0 lf 1008,4 hPa 0,0 l/m 0 min 0 min 224 W/m 25,1 km/h (4 Bft)
29.07.2015 15:58 19,2 C 16,1 C 67 % 15 lf 1008,4 hPa 0,0 l/m 0 min 2 min 227 W/m 23,0 km/h (4 Bft)
29.07.2015 16:00 19,1 C 15,6 C 68 % 9 lf 1008,2 hPa 0,0 l/m 0 min 2 min 192 W/m 25,1 km/h (4 Bft)
29.07.2015 16:02 19,0 C 15,0 C 67 % 0 lf 1008,4 hPa 0,0 l/m 0 min 0 min 156 W/m 20,9 km/h (4 Bft)
29.07.2015 16:04 18,8 C 15,0 C 67 % 0 lf 1008,4 hPa 0,0 l/m 0 min 0 min 115 W/m 18,8 km/h (3 Bft)
29.07.2015 16:06 18,7 C 15,0 C 68 % 0 lf 1008,4 hPa 0,0 l/m 0 min 0 min 105 W/m 14,6 km/h (3 Bft)
29.07.2015 16:08 18,5 C 15,6 C 69 % 0 lf 1008,4 hPa 0,0 l/m 0 min 0 min 154 W/m 18,8 km/h (3 Bft)
29.07.2015 16:10 18,3 C 15,6 C 69 % 0 lf 1008,4 hPa 0,0 l/m 0 min 0 min 178 W/m 23,0 km/h (4 Bft)
29.07.2015 16:12 18,2 C 16,7 C 69 % 0 lf 1008,3 hPa 0,0 l/m 0 min 0 min 310 W/m 25,1 km/h (4 Bft)
29.07.2015 16:14 18,2 C 17,2 C 69 % 0 lf 1008,4 hPa 0,0 l/m 2 min 0 min 777 W/m 35,6 km/h (5 Bft)
29.07.2015 16:16 18,2 C 17,8 C 69 % 0 lf 1008,3 hPa 0,0 l/m 2 min 0 min 743 W/m 20,9 km/h (4 Bft)
29.07.2015 16:18 18,3 C 18,3 C 70 % 0 lf 1008,4 hPa 0,0 l/m 2 min 0 min 730 W/m 27,2 km/h (4 Bft)
29.07.2015 16:20 18,5 C 19,4 C 68 % 0 lf 1008,4 hPa 0,0 l/m 2 min 0 min 751 W/m 33,5 km/h (5 Bft)
29.07.2015 16:22 18,7 C 20,6 C 68 % 0 lf 1008,5 hPa 0,0 l/m 2 min 0 min 788 W/m 33,5 km/h (5 Bft)
29.07.2015 16:24 18,9 C 21,1 C 68 % 0 lf 1008,4 hPa 0,0 l/m 2 min 0 min 846 W/m 37,7 km/h (5 Bft)
29.07.2015 16:26 19,1 C 19,4 C 65 % 0 lf 1008,4 hPa 0,0 l/m 2 min 0 min 637 W/m 37,7 km/h (5 Bft)
29.07.2015 16:28 19,2 C 20,6 C 65 % 0 lf 1008,4 hPa 0,0 l/m 0 min 0 min 277 W/m 43,9 km/h (6 Bft)
29.07.2015 16:30 19,4 C 21,7 C 66 % 0 lf 1008,5 hPa 0,0 l/m 2 min 0 min 778 W/m 27,2 km/h (4 Bft)
29.07.2015 16:32 19,6 C 22,2 C 64 % 0 lf 1008,5 hPa 0,0 l/m 2 min 0 min 732 W/m 35,6 km/h (5 Bft)
29.07.2015 16:34 19,6 C 22,8 C 62 % 0 lf 1008,5 hPa 0,0 l/m 2 min 0 min 712 W/m 39,7 km/h (6 Bft)
29.07.2015 16:36 19,7 C 22,8 C 63 % 0 lf 1008,4 hPa 0,0 l/m 2 min 0 min 681 W/m 33,5 km/h (5 Bft)
29.07.2015 16:38 19,8 C 22,8 C 62 % 0 lf 1008,6 hPa 0,0 l/m 2 min 0 min 666 W/m 27,2 km/h (4 Bft)
29.07.2015 16:40 19,9 C 22,8 C 62 % 0 lf 1008,5 hPa 0,0 l/m 2 min 0 min 666 W/m 27,2 km/h (4 Bft)
29.07.2015 16:42 20,0 C 22,8 C 62 % 0 lf 1008,5 hPa 0,0 l/m 2 min 0 min 661 W/m 27,2 km/h (4 Bft)
29.07.2015 16:44 20,1 C 21,7 C 59 % 0 lf 1008,5 hPa 0,0 l/m 2 min 0 min 671 W/m 43,9 km/h (6 Bft)
29.07.2015 16:46 20,1 C 21,1 C 59 % 0 lf 1008,6 hPa 0,0 l/m 2 min 0 min 652 W/m 35,6 km/h (5 Bft)
29.07.2015 16:48 20,1 C 21,7 C 60 % 0 lf 1008,6 hPa 0,0 l/m 2 min 0 min 659 W/m 25,1 km/h (4 Bft)
29.07.2015 16:50 20,2 C 21,7 C 61 % 0 lf 1008,7 hPa 0,0 l/m 2 min 0 min 673 W/m 29,3 km/h (5 Bft)
29.07.2015 16:52 20,2 C 20,6 C 59 % 0 lf 1008,8 hPa 0,0 l/m 2 min 0 min 671 W/m 35,6 km/h (5 Bft)
29.07.2015 16:54 20,2 C 20,0 C 56 % 0 lf 1008,7 hPa 0,0 l/m 2 min 0 min 660 W/m 43,9 km/h (6 Bft)
29.07.2015 16:56 20,2 C 19,4 C 57 % 0 lf 1008,8 hPa 0,0 l/m 2 min 0 min 645 W/m 46,0 km/h (6 Bft)
29.07.2015 16:58 20,2 C 19,4 C 57 % 0 lf 1008,7 hPa 0,0 l/m 2 min 0 min 625 W/m 27,2 km/h (4 Bft)
29.07.2015 17:00 20,2 C 18,9 C 56 % 0 lf 1008,6 hPa 0,0 l/m 2 min 0 min 618 W/m 35,6 km/h (5 Bft)
29.07.2015 17:02 20,2 C 18,9 C 56 % 0 lf 1008,7 hPa 0,0 l/m 2 min 0 min 619 W/m 35,6 km/h (5 Bft)
29.07.2015 17:04 20,2 C 18,3 C 56 % 0 lf 1008,7 hPa 0,0 l/m 2 min 0 min 648 W/m 43,9 km/h (6 Bft)
29.07.2015 17:06 20,1 C 18,3 C 57 % 0 lf 1008,7 hPa 0,0 l/m 2 min 0 min 622 W/m 31,4 km/h (5 Bft)
29.07.2015 17:08 20,1 C 18,3 C 56 % 0 lf 1008,7 hPa 0,0 l/m 2 min 0 min 617 W/m 41,8 km/h (6 Bft)
29.07.2015 17:10 20,1 C 18,3 C 55 % 0 lf 1008,6 hPa 0,0 l/m 2 min 0 min 608 W/m 43,9 km/h (6 Bft)
29.07.2015 17:12 20,0 C 17,8 C 55 % 0 lf 1008,8 hPa 0,0 l/m 2 min 0 min 534 W/m 39,7 km/h (6 Bft)
29.07.2015 17:14 19,9 C 17,8 C 55 % 0 lf 1008,8 hPa 0,0 l/m 0 min 0 min 200 W/m 29,3 km/h (5 Bft)
29.07.2015 17:16 19,8 C 17,8 C 57 % 0 lf 1008,9 hPa 0,0 l/m 0 min 0 min 243 W/m 27,2 km/h (4 Bft)
29.07.2015 17:18 19,8 C 17,8 C 57 % 0 lf 1008,9 hPa 0,0 l/m 2 min 0 min 593 W/m 33,5 km/h (5 Bft)
29.07.2015 17:20 19,8 C 17,8 C 58 % 0 lf 1008,9 hPa 0,0 l/m 2 min 0 min 586 W/m 39,7 km/h (6 Bft)
29.07.2015 17:22 19,7 C 17,8 C 58 % 0 lf 1008,9 hPa 0,0 l/m 2 min 0 min 578 W/m 43,9 km/h (6 Bft)
29.07.2015 17:24 19,7 C 17,8 C 58 % 0 lf 1008,9 hPa 0,0 l/m 2 min 0 min 575 W/m 39,7 km/h (6 Bft)
29.07.2015 17:26 19,7 C 17,8 C 58 % 0 lf 1009,1 hPa 0,0 l/m 2 min 0 min 577 W/m 37,7 km/h (5 Bft)
29.07.2015 17:28 19,7 C 17,8 C 57 % 0 lf 1009,1 hPa 0,0 l/m 2 min 0 min 565 W/m 27,2 km/h (4 Bft)
29.07.2015 17:30 19,7 C 17,8 C 58 % 0 lf 1009,0 hPa 0,0 l/m 2 min 0 min 558 W/m 35,6 km/h (5 Bft)
29.07.2015 17:32 19,7 C 17,8 C 57 % 0 lf 1009,1 hPa 0,0 l/m 2 min 0 min 551 W/m 35,6 km/h (5 Bft)
29.07.2015 17:34 19,7 C 17,8 C 57 % 0 lf 1009,0 hPa 0,0 l/m 2 min 0 min 552 W/m 31,4 km/h (5 Bft)
29.07.2015 17:36 19,7 C 17,8 C 58 % 0 lf 1009,1 hPa 0,0 l/m 2 min 0 min 548 W/m 35,6 km/h (5 Bft)
29.07.2015 17:38 19,7 C 17,8 C 57 % 0 lf 1009,2 hPa 0,0 l/m 2 min 0 min 551 W/m 25,1 km/h (4 Bft)
29.07.2015 17:40 19,6 C 17,8 C 57 % 0 lf 1009,2 hPa 0,0 l/m 2 min 0 min 525 W/m 37,7 km/h (5 Bft)
29.07.2015 17:42 19,6 C 17,8 C 57 % 0 lf 1009,2 hPa 0,0 l/m 2 min 0 min 555 W/m 31,4 km/h (5 Bft)
29.07.2015 17:44 19,6 C 17,8 C 57 % 0 lf 1009,2 hPa 0,0 l/m 2 min 0 min 550 W/m 29,3 km/h (5 Bft)
29.07.2015 17:46 19,5 C 17,2 C 57 % 0 lf 1009,2 hPa 0,0 l/m 2 min 0 min 531 W/m 29,3 km/h (5 Bft)
29.07.2015 17:48 19,5 C 17,2 C 57 % 0 lf 1009,2 hPa 0,0 l/m 2 min 0 min 529 W/m 33,5 km/h (5 Bft)
29.07.2015 17:50 19,4 C 17,2 C 57 % 0 lf 1009,4 hPa 0,0 l/m 2 min 0 min 503 W/m 39,7 km/h (6 Bft)
29.07.2015 17:52 19,4 C 17,2 C 57 % 0 lf 1009,2 hPa 0,0 l/m 2 min 0 min 492 W/m 43,9 km/h (6 Bft)
29.07.2015 17:54 19,4 C 17,2 C 56 % 0 lf 1009,2 hPa 0,0 l/m 2 min 0 min 488 W/m 39,7 km/h (6 Bft)
29.07.2015 17:56 19,3 C 17,2 C 56 % 0 lf 1009,3 hPa 0,0 l/m 2 min 0 min 478 W/m 48,1 km/h (6 Bft)
29.07.2015 17:58 19,3 C 17,2 C 56 % 0 lf 1009,2 hPa 0,0 l/m 2 min 0 min 478 W/m 35,6 km/h (5 Bft)
29.07.2015 18:00 19,2 C 17,2 C 56 % 0 lf 1009,3 hPa 0,0 l/m 2 min 0 min 474 W/m 29,3 km/h (5 Bft)
29.07.2015 18:02 19,2 C 17,2 C 57 % 0 lf 1009,2 hPa 0,0 l/m 2 min 0 min 469 W/m 35,6 km/h (5 Bft)
29.07.2015 18:05 19,1 C 16,7 C 57 % 0 lf 1009,3 hPa 0,0 l/m 2 min 0 min 469 W/m 29,3 km/h (5 Bft)
29.07.2015 18:06 19,1 C 16,7 C 57 % 0 lf 1009,3 hPa 0,0 l/m 1 min 0 min 466 W/m 29,3 km/h (5 Bft)
29.07.2015 18:08 19,1 C 16,7 C 58 % 0 lf 1009,4 hPa 0,0 l/m 2 min 0 min 464 W/m 23,0 km/h (4 Bft)
29.07.2015 18:10 19,1 C 17,2 C 58 % 0 lf 1009,4 hPa 0,0 l/m 2 min 0 min 459 W/m 20,9 km/h (4 Bft)
29.07.2015 18:12 19,0 C 17,2 C 58 % 0 lf 1009,4 hPa 0,0 l/m 2 min 0 min 447 W/m 33,5 km/h (5 Bft)
29.07.2015 18:14 19,0 C 17,2 C 57 % 0 lf 1009,3 hPa 0,0 l/m 2 min 0 min 438 W/m 20,9 km/h (4 Bft)
29.07.2015 18:16 19,0 C 17,2 C 56 % 0 lf 1009,3 hPa 0,0 l/m 2 min 0 min 430 W/m 35,6 km/h (5 Bft)
29.07.2015 18:18 18,9 C 17,2 C 56 % 0 lf 1009,4 hPa 0,0 l/m 0 min 0 min 217 W/m 31,4 km/h (5 Bft)
29.07.2015 18:20 18,9 C 17,2 C 56 % 0 lf 1009,4 hPa 0,0 l/m 2 min 0 min 412 W/m 20,9 km/h (4 Bft)
29.07.2015 18:22 18,9 C 17,2 C 57 % 0 lf 1009,4 hPa 0,0 l/m 2 min 0 min 522 W/m 20,9 km/h (4 Bft)
29.07.2015 18:24 18,9 C 17,2 C 57 % 0 lf 1009,5 hPa 0,0 l/m 0 min 0 min 213 W/m 41,8 km/h (6 Bft)
29.07.2015 18:26 18,8 C 17,2 C 56 % 0 lf 1009,7 hPa 0,0 l/m 0 min 0 min 136 W/m 27,2 km/h (4 Bft)
29.07.2015 18:28 18,8 C 17,2 C 57 % 0 lf 1009,6 hPa 0,0 l/m 0 min 0 min 128 W/m 29,3 km/h (5 Bft)
29.07.2015 18:30 18,7 C 16,7 C 56 % 0 lf 1009,5 hPa 0,0 l/m 0 min 0 min 137 W/m 39,7 km/h (6 Bft)
29.07.2015 18:32 18,6 C 16,7 C 56 % 0 lf 1009,6 hPa 0,0 l/m 0 min 0 min 182 W/m 33,5 km/h (5 Bft)
29.07.2015 18:34 18,6 C 16,7 C 57 % 0 lf 1009,8 hPa 0,0 l/m 0 min 0 min 192 W/m 29,3 km/h (5 Bft)
29.07.2015 18:36 18,5 C 17,2 C 57 % 0 lf 1009,7 hPa 0,0 l/m 2 min 0 min 478 W/m 29,3 km/h (5 Bft)
29.07.2015 18:38 18,5 C 17,2 C 57 % 0 lf 1009,7 hPa 0,0 l/m 2 min 0 min 477 W/m 33,5 km/h (5 Bft)
29.07.2015 18:40 18,5 C 17,2 C 57 % 0 lf 1009,8 hPa 0,0 l/m 2 min 0 min 242 W/m 29,3 km/h (5 Bft)
29.07.2015 18:42 18,5 C 17,2 C 57 % 0 lf 1009,8 hPa 0,0 l/m 2 min 0 min 352 W/m 43,9 km/h (6 Bft)
29.07.2015 18:44 18,4 C 16,7 C 58 % 0 lf 1009,8 hPa 0,0 l/m 2 min 0 min 214 W/m 31,4 km/h (5 Bft)
29.07.2015 18:46 18,4 C 16,7 C 59 % 0 lf 1009,8 hPa 0,0 l/m 0 min 0 min 108 W/m 20,9 km/h (4 Bft)
29.07.2015 18:48 18,4 C 16,7 C 59 % 0 lf 1009,9 hPa 0,0 l/m 0 min 0 min 96 W/m 20,9 km/h (4 Bft)
29.07.2015 18:50 18,3 C 16,7 C 59 % 0 lf 1009,9 hPa 0,0 l/m 0 min 0 min 99 W/m 33,5 km/h (5 Bft)
29.07.2015 18:52 18,3 C 16,7 C 59 % 0 lf 1009,8 hPa 0,0 l/m 0 min 0 min 98 W/m 18,8 km/h (3 Bft)
29.07.2015 18:54 18,2 C 16,1 C 60 % 0 lf 1009,9 hPa 0,0 l/m 0 min 0 min 83 W/m 29,3 km/h (5 Bft)
29.07.2015 18:56 18,2 C 16,1 C 60 % 0 lf 1010,0 hPa 0,0 l/m 0 min 0 min 65 W/m 18,8 km/h (3 Bft)
29.07.2015 18:58 18,1 C 16,1 C 60 % 0 lf 1009,9 hPa 0,0 l/m 0 min 0 min 55 W/m 25,1 km/h (4 Bft)
29.07.2015 19:00 18,1 C 16,1 C 60 % 0 lf 1010,0 hPa 0,0 l/m 0 min 0 min 51 W/m 33,5 km/h (5 Bft)
29.07.2015 19:02 18,0 C 16,1 C 60 % 0 lf 1010,0 hPa 0,0 l/m 0 min 0 min 40 W/m 25,1 km/h (4 Bft)
29.07.2015 19:04 17,9 C 15,6 C 60 % 0 lf 1010,0 hPa 0,0 l/m 0 min 0 min 33 W/m 31,4 km/h (5 Bft)
29.07.2015 19:06 17,8 C 15,6 C 60 % 0 lf 1010,1 hPa 0,0 l/m 0 min 0 min 31 W/m 23,0 km/h (4 Bft)
29.07.2015 19:08 17,8 C 15,6 C 61 % 0 lf 1010,1 hPa 0,0 l/m 0 min 0 min 28 W/m 27,2 km/h (4 Bft)
29.07.2015 19:10 17,7 C 15,6 C 62 % 0 lf 1010,2 hPa 0,0 l/m 0 min 2 min 32 W/m 27,2 km/h (4 Bft)
29.07.2015 19:12 17,7 C 15,6 C 62 % 0 lf 1010,2 hPa 0,0 l/m 0 min 0 min 32 W/m 27,2 km/h (4 Bft)
29.07.2015 19:14 17,6 C 15,6 C 62 % 0 lf 1010,4 hPa 0,0 l/m 0 min 0 min 32 W/m 29,3 km/h (5 Bft)
29.07.2015 19:16 17,6 C 15,0 C 63 % 3 lf 1010,4 hPa 0,0 l/m 0 min 2 min 35 W/m 27,2 km/h (4 Bft)
29.07.2015 19:18 17,4 C 15,0 C 65 % 15 lf 1010,5 hPa 0,0 l/m 0 min 2 min 35 W/m 35,6 km/h (5 Bft)
29.07.2015 19:20 17,3 C 14,4 C 66 % 14 lf 1010,4 hPa 0,0 l/m 0 min 2 min 39 W/m 33,5 km/h (5 Bft)
29.07.2015 19:22 17,2 C 14,4 C 67 % 11 lf 1010,5 hPa 0,0 l/m 0 min 0 min 42 W/m 29,3 km/h (5 Bft)
29.07.2015 19:24 17,1 C 14,4 C 68 % 2 lf 1010,5 hPa 0,0 l/m 0 min 0 min 38 W/m 27,2 km/h (4 Bft)
29.07.2015 19:26 17,0 C 14,4 C 67 % 0 lf 1010,5 hPa 0,0 l/m 0 min 0 min 33 W/m 25,1 km/h (4 Bft)
29.07.2015 19:28 16,9 C 14,4 C 68 % 0 lf 1010,5 hPa 0,0 l/m 0 min 0 min 32 W/m 27,2 km/h (4 Bft)
29.07.2015 19:30 16,8 C 14,4 C 68 % 0 lf 1010,5 hPa 0,0 l/m 0 min 2 min 35 W/m 25,1 km/h (4 Bft)
29.07.2015 19:32 16,7 C 15,0 C 68 % 0 lf 1010,6 hPa 0,0 l/m 0 min 0 min 41 W/m 20,9 km/h (4 Bft)
29.07.2015 19:34 16,7 C 15,0 C 68 % 0 lf 1010,7 hPa 0,0 l/m 0 min 0 min 37 W/m 23,0 km/h (4 Bft)
29.07.2015 19:36 16,6 C 14,4 C 68 % 0 lf 1010,7 hPa 0,0 l/m 0 min 0 min 26 W/m 31,4 km/h (5 Bft)
29.07.2015 19:38 16,5 C 14,4 C 69 % 0 lf 1010,7 hPa 0,0 l/m 0 min 0 min 22 W/m 29,3 km/h (5 Bft)
29.07.2015 19:40 16,4 C 14,4 C 70 % 0 lf 1010,7 hPa 0,0 l/m 0 min 0 min 21 W/m 25,1 km/h (4 Bft)
29.07.2015 19:42 16,4 C 14,4 C 70 % 2 lf 1010,8 hPa 0,0 l/m 0 min 2 min 21 W/m 31,4 km/h (5 Bft)
29.07.2015 19:44 16,3 C 13,9 C 71 % 1 lf 1010,9 hPa 0,0 l/m 0 min 2 min 20 W/m 35,6 km/h (5 Bft)
29.07.2015 19:46 16,2 C 13,9 C 71 % 4 lf 1011,0 hPa 0,0 l/m 0 min 2 min 17 W/m 29,3 km/h (5 Bft)
29.07.2015 19:48 16,1 C 13,3 C 71 % 1 lf 1011,0 hPa 0,0 l/m 0 min 2 min 14 W/m 29,3 km/h (5 Bft)
29.07.2015 19:50 16,0 C 13,3 C 72 % 0 lf 1011,0 hPa 0,0 l/m 0 min 0 min 15 W/m 35,6 km/h (5 Bft)
29.07.2015 19:52 15,9 C 13,9 C 72 % 0 lf 1011,1 hPa 0,0 l/m 0 min 0 min 17 W/m 20,9 km/h (4 Bft)
29.07.2015 19:54 15,8 C 13,9 C 72 % 0 lf 1011,1 hPa 0,0 l/m 0 min 0 min 19 W/m 18,8 km/h (3 Bft)
29.07.2015 19:56 15,7 C 13,9 C 72 % 1 lf 1011,1 hPa 0,0 l/m 0 min 0 min 21 W/m 39,7 km/h (6 Bft)
29.07.2015 19:58 15,5 C 13,9 C 72 % 9 lf 1011,1 hPa 0,0 l/m 0 min 2 min 24 W/m 33,5 km/h (5 Bft)
29.07.2015 20:00 15,4 C 13,3 C 72 % 1 lf 1011,1 hPa 0,0 l/m 0 min 2 min 26 W/m 29,3 km/h (5 Bft)
29.07.2015 20:02 15,3 C 13,3 C 72 % 0 lf 1011,1 hPa 0,0 l/m 0 min 0 min 28 W/m 25,1 km/h (4 Bft)
29.07.2015 20:04 15,2 C 13,3 C 72 % 0 lf 1011,1 hPa 0,0 l/m 0 min 0 min 32 W/m 18,8 km/h (3 Bft)
29.07.2015 20:06 15,2 C 13,3 C 73 % 0 lf 1011,0 hPa 0,0 l/m 0 min 0 min 35 W/m 27,2 km/h (4 Bft)
29.07.2015 20:08 15,1 C 13,3 C 73 % 0 lf 1011,1 hPa 0,0 l/m 0 min 0 min 39 W/m 18,8 km/h (3 Bft)
29.07.2015 20:10 15,1 C 13,9 C 73 % 0 lf 1011,1 hPa 0,0 l/m 0 min 0 min 45 W/m 27,2 km/h (4 Bft)
29.07.2015 20:12 15,0 C 13,9 C 73 % 0 lf 1011,1 hPa 0,0 l/m 0 min 0 min 49 W/m 27,2 km/h (4 Bft)
29.07.2015 20:14 15,0 C 13,9 C 73 % 0 lf 1011,1 hPa 0,0 l/m 0 min 0 min 66 W/m 12,6 km/h (3 Bft)
29.07.2015 20:16 14,9 C 13,9 C 73 % 0 lf 1011,0 hPa 0,0 l/m 0 min 0 min 64 W/m 20,9 km/h (4 Bft)
29.07.2015 20:18 14,9 C 13,9 C 73 % 0 lf 1011,1 hPa 0,0 l/m 0 min 0 min 50 W/m 20,9 km/h (4 Bft)
29.07.2015 20:20 14,9 C 13,9 C 73 % 0 lf 1011,1 hPa 0,0 l/m 0 min 0 min 50 W/m 18,8 km/h (3 Bft)
29.07.2015 20:22 14,9 C 13,9 C 73 % 0 lf 1011,1 hPa 0,0 l/m 0 min 0 min 55 W/m 16,7 km/h (3 Bft)
29.07.2015 20:24 14,9 C 13,9 C 73 % 0 lf 1011,1 hPa 0,0 l/m 0 min 0 min 62 W/m 16,7 km/h (3 Bft)
29.07.2015 20:26 14,9 C 13,9 C 73 % 0 lf 1011,2 hPa 0,0 l/m 0 min 0 min 64 W/m 14,6 km/h (3 Bft)
29.07.2015 20:28 14,9 C 13,9 C 73 % 0 lf 1011,1 hPa 0,0 l/m 0 min 0 min 51 W/m 20,9 km/h (4 Bft)
29.07.2015 20:30 14,9 C 13,9 C 73 % 0 lf 1011,1 hPa 0,0 l/m 0 min 0 min 56 W/m 18,8 km/h (3 Bft)
29.07.2015 20:32 14,9 C 13,9 C 73 % 0 lf 1011,1 hPa 0,0 l/m 0 min 0 min 42 W/m 18,8 km/h (3 Bft)
29.07.2015 20:34 14,9 C 13,9 C 73 % 0 lf 1011,1 hPa 0,0 l/m 0 min 0 min 37 W/m 18,8 km/h (3 Bft)
29.07.2015 20:36 14,9 C 13,9 C 73 % 0 lf 1011,2 hPa 0,0 l/m 0 min 0 min 38 W/m 23,0 km/h (4 Bft)
29.07.2015 20:38 14,9 C 13,3 C 74 % 0 lf 1011,2 hPa 0,0 l/m 0 min 0 min 38 W/m 25,1 km/h (4 Bft)
29.07.2015 20:40 14,9 C 13,3 C 74 % 0 lf 1011,2 hPa 0,0 l/m 0 min 0 min 37 W/m 20,9 km/h (4 Bft)
29.07.2015 20:42 14,9 C 13,3 C 74 % 0 lf 1011,3 hPa 0,0 l/m 0 min 0 min 41 W/m 14,6 km/h (3 Bft)
29.07.2015 20:44 14,9 C 13,3 C 74 % 0 lf 1011,3 hPa 0,0 l/m 0 min 0 min 37 W/m 14,6 km/h (3 Bft)
29.07.2015 20:46 14,9 C 13,3 C 74 % 0 lf 1011,3 hPa 0,0 l/m 0 min 0 min 31 W/m 14,6 km/h (3 Bft)
29.07.2015 20:48 14,9 C 13,3 C 74 % 0 lf 1011,4 hPa 0,0 l/m 0 min 0 min 29 W/m 20,9 km/h (4 Bft)
29.07.2015 20:50 14,8 C 13,3 C 74 % 0 lf 1011,4 hPa 0,0 l/m 0 min 0 min 27 W/m 20,9 km/h (4 Bft)
29.07.2015 20:52 14,8 C 13,3 C 74 % 0 lf 1011,4 hPa 0,0 l/m 0 min 0 min 25 W/m 16,7 km/h (3 Bft)
29.07.2015 20:54 14,8 C 13,3 C 75 % 0 lf 1011,4 hPa 0,0 l/m 0 min 0 min 22 W/m 16,7 km/h (3 Bft)
29.07.2015 20:56 14,8 C 13,3 C 75 % 0 lf 1011,5 hPa 0,0 l/m 0 min 0 min 20 W/m 18,8 km/h (3 Bft)
29.07.2015 20:58 14,8 C 13,3 C 75 % 0 lf 1011,4 hPa 0,0 l/m 0 min 0 min 18 W/m 16,7 km/h (3 Bft)
29.07.2015 21:00 14,8 C 13,3 C 75 % 0 lf 1011,4 hPa 0,0 l/m 0 min 0 min 17 W/m 14,6 km/h (3 Bft)
29.07.2015 21:02 14,8 C 13,3 C 75 % 0 lf 1011,4 hPa 0,0 l/m 0 min 0 min 16 W/m 14,6 km/h (3 Bft)
29.07.2015 21:04 14,8 C 13,3 C 75 % 0 lf 1011,5 hPa 0,0 l/m 0 min 0 min 14 W/m 16,7 km/h (3 Bft)
29.07.2015 21:06 14,7 C 13,3 C 75 % 0 lf 1011,5 hPa 0,0 l/m 0 min 0 min 14 W/m 23,0 km/h (4 Bft)
29.07.2015 21:08 14,7 C 12,8 C 75 % 0 lf 1011,5 hPa 0,0 l/m 0 min 0 min 13 W/m 14,6 km/h (3 Bft)
29.07.2015 21:10 14,7 C 12,8 C 75 % 0 lf 1011,5 hPa 0,0 l/m 0 min 0 min 12 W/m 20,9 km/h (4 Bft)
29.07.2015 21:12 14,7 C 12,8 C 75 % 0 lf 1011,5 hPa 0,0 l/m 0 min 0 min 12 W/m 16,7 km/h (3 Bft)
29.07.2015 21:14 14,6 C 12,8 C 75 % 0 lf 1011,6 hPa 0,0 l/m 0 min 0 min 11 W/m 12,6 km/h (3 Bft)
29.07.2015 21:16 14,6 C 12,8 C 76 % 0 lf 1011,6 hPa 0,0 l/m 0 min 0 min 9 W/m 14,6 km/h (3 Bft)
29.07.2015 21:18 14,6 C 12,8 C 76 % 0 lf 1011,5 hPa 0,0 l/m 0 min 0 min 8 W/m 20,9 km/h (4 Bft)
29.07.2015 21:20 14,6 C 12,8 C 76 % 0 lf 1011,6 hPa 0,0 l/m 0 min 0 min 7 W/m 16,7 km/h (3 Bft)
29.07.2015 21:22 14,6 C 12,8 C 76 % 0 lf 1011,6 hPa 0,0 l/m 0 min 0 min 7 W/m 18,8 km/h (3 Bft)
29.07.2015 21:24 14,5 C 12,8 C 76 % 0 lf 1011,7 hPa 0,0 l/m 0 min 0 min 7 W/m 14,6 km/h (3 Bft)
29.07.2015 21:26 14,5 C 12,8 C 76 % 0 lf 1011,6 hPa 0,0 l/m 0 min 0 min 5 W/m 18,8 km/h (3 Bft)
29.07.2015 21:28 14,5 C 12,8 C 76 % 0 lf 1011,8 hPa 0,0 l/m 0 min 0 min 5 W/m 12,6 km/h (3 Bft)
29.07.2015 21:30 14,4 C 12,8 C 77 % 0 lf 1011,7 hPa 0,0 l/m 0 min 0 min 5 W/m 10,5 km/h (2 Bft)
29.07.2015 21:32 14,4 C 13,3 C 77 % 0 lf 1011,8 hPa 0,0 l/m 0 min 0 min 5 W/m 14,6 km/h (3 Bft)
29.07.2015 21:34 14,4 C 13,3 C 77 % 0 lf 1011,8 hPa 0,0 l/m 0 min 0 min 0 W/m 14,6 km/h (3 Bft)
29.07.2015 21:36 14,4 C 13,3 C 77 % 0 lf 1011,8 hPa 0,0 l/m 0 min 0 min 0 W/m 10,5 km/h (2 Bft)
29.07.2015 21:38 14,4 C 13,3 C 77 % 0 lf 1011,9 hPa 0,0 l/m 0 min 0 min 0 W/m 14,6 km/h (3 Bft)
29.07.2015 21:40 14,4 C 13,3 C 77 % 0 lf 1011,9 hPa 0,0 l/m 0 min 0 min 0 W/m 16,7 km/h (3 Bft)
29.07.2015 21:42 14,4 C 13,3 C 78 % 0 lf 1011,9 hPa 0,0 l/m 0 min 0 min 0 W/m 12,6 km/h (3 Bft)
29.07.2015 21:44 14,4 C 13,3 C 78 % 0 lf 1011,9 hPa 0,0 l/m 0 min 0 min 0 W/m 12,6 km/h (3 Bft)
29.07.2015 21:46 14,4 C 13,3 C 78 % 0 lf 1011,9 hPa 0,0 l/m 0 min 0 min 0 W/m 8,4 km/h (2 Bft)
29.07.2015 21:48 14,4 C 13,3 C 78 % 0 lf 1012,0 hPa 0,0 l/m 0 min 0 min 0 W/m 10,5 km/h (2 Bft)
29.07.2015 21:50 14,4 C 12,8 C 78 % 0 lf 1012,0 hPa 0,0 l/m 0 min 0 min 0 W/m 12,6 km/h (3 Bft)
29.07.2015 21:52 14,4 C 12,8 C 78 % 0 lf 1012,0 hPa 0,0 l/m 0 min 0 min 0 W/m 14,6 km/h (3 Bft)
29.07.2015 21:54 14,4 C 12,8 C 78 % 0 lf 1012,0 hPa 0,0 l/m 0 min 0 min 0 W/m 14,6 km/h (3 Bft)
29.07.2015 21:56 14,4 C 12,8 C 78 % 0 lf 1012,0 hPa 0,0 l/m 0 min 0 min 0 W/m 16,7 km/h (3 Bft)
29.07.2015 21:58 14,4 C 12,8 C 78 % 0 lf 1012,0 hPa 0,0 l/m 0 min 0 min 0 W/m 10,5 km/h (2 Bft)
29.07.2015 22:00 14,4 C 12,8 C 79 % 0 lf 1012,0 hPa 0,0 l/m 0 min 0 min 0 W/m 10,5 km/h (2 Bft)
29.07.2015 22:02 14,4 C 12,8 C 79 % 0 lf 1012,0 hPa 0,0 l/m 0 min 0 min 0 W/m 8,4 km/h (2 Bft)
29.07.2015 22:04 14,3 C 12,8 C 79 % 0 lf 1012,0 hPa 0,0 l/m 0 min 0 min 0 W/m 8,4 km/h (2 Bft)
29.07.2015 22:06 14,3 C 12,2 C 78 % 0 lf 1012,0 hPa 0,0 l/m 0 min 0 min 0 W/m 16,7 km/h (3 Bft)
29.07.2015 22:08 14,3 C 12,2 C 79 % 0 lf 1012,0 hPa 0,0 l/m 0 min 0 min 0 W/m 12,6 km/h (3 Bft)
29.07.2015 22:10 14,3 C 12,2 C 79 % 0 lf 1012,0 hPa 0,0 l/m 0 min 0 min 0 W/m 14,6 km/h (3 Bft)
29.07.2015 22:12 14,2 C 12,2 C 79 % 0 lf 1012,0 hPa 0,0 l/m 0 min 0 min 0 W/m 8,4 km/h (2 Bft)
29.07.2015 22:14 14,2 C 12,2 C 79 % 0 lf 1012,1 hPa 0,0 l/m 0 min 0 min 0 W/m 6,3 km/h (2 Bft)
29.07.2015 22:16 14,2 C 12,2 C 79 % 0 lf 1012,1 hPa 0,0 l/m 0 min 0 min 0 W/m 8,4 km/h (2 Bft)
29.07.2015 22:18 14,2 C 12,2 C 79 % 0 lf 1012,1 hPa 0,0 l/m 0 min 0 min 0 W/m 8,4 km/h (2 Bft)
29.07.2015 22:20 14,2 C 12,2 C 79 % 0 lf 1012,1 hPa 0,0 l/m 0 min 0 min 0 W/m 6,3 km/h (2 Bft)
29.07.2015 22:22 14,2 C 12,2 C 79 % 0 lf 1012,1 hPa 0,0 l/m 0 min 0 min 0 W/m 8,4 km/h (2 Bft)
29.07.2015 22:24 14,2 C 12,2 C 80 % 0 lf 1012,1 hPa 0,0 l/m 0 min 0 min 0 W/m 12,6 km/h (3 Bft)
29.07.2015 22:26 14,2 C 12,2 C 80 % 0 lf 1012,1 hPa 0,0 l/m 0 min 0 min 0 W/m 10,5 km/h (2 Bft)
29.07.2015 22:28 14,2 C 12,2 C 80 % 0 lf 1012,1 hPa 0,0 l/m 0 min 0 min 0 W/m 14,6 km/h (3 Bft)
29.07.2015 22:30 14,1 C 12,2 C 80 % 0 lf 1012,1 hPa 0,0 l/m 0 min 0 min 0 W/m 10,5 km/h (2 Bft)
29.07.2015 22:32 14,1 C 12,2 C 80 % 0 lf 1012,1 hPa 0,0 l/m 0 min 0 min 0 W/m 8,4 km/h (2 Bft)
29.07.2015 22:34 14,0 C 12,2 C 80 % 0 lf 1012,1 hPa 0,0 l/m 0 min 0 min 0 W/m 10,5 km/h (2 Bft)
29.07.2015 22:36 14,0 C 12,2 C 80 % 0 lf 1012,2 hPa 0,0 l/m 0 min 0 min 0 W/m 10,5 km/h (2 Bft)
29.07.2015 22:38 13,9 C 12,2 C 80 % 0 lf 1012,1 hPa 0,0 l/m 0 min 0 min 0 W/m 10,5 km/h (2 Bft)
29.07.2015 22:40 13,9 C 12,2 C 81 % 0 lf 1012,1 hPa 0,0 l/m 0 min 0 min 0 W/m 12,6 km/h (3 Bft)
29.07.2015 22:42 13,9 C 12,2 C 81 % 0 lf 1012,1 hPa 0,0 l/m 0 min 0 min 0 W/m 12,6 km/h (3 Bft)
29.07.2015 22:44 13,9 C 12,2 C 81 % 0 lf 1012,2 hPa 0,0 l/m 0 min 0 min 0 W/m 8,4 km/h (2 Bft)
29.07.2015 22:46 13,9 C 12,2 C 81 % 0 lf 1012,1 hPa 0,0 l/m 0 min 0 min 0 W/m 10,5 km/h (2 Bft)
29.07.2015 22:48 13,8 C 12,2 C 81 % 0 lf 1012,1 hPa 0,0 l/m 0 min 0 min 0 W/m 10,5 km/h (2 Bft)
29.07.2015 22:50 13,8 C 12,2 C 81 % 0 lf 1012,1 hPa 0,0 l/m 0 min 0 min 0 W/m 12,6 km/h (3 Bft)
29.07.2015 22:52 13,8 C 12,2 C 82 % 0 lf 1012,2 hPa 0,0 l/m 0 min 0 min 0 W/m 16,7 km/h (3 Bft)
29.07.2015 22:54 13,8 C 12,2 C 82 % 0 lf 1012,2 hPa 0,0 l/m 0 min 0 min 0 W/m 16,7 km/h (3 Bft)
29.07.2015 22:56 13,8 C 12,2 C 82 % 0 lf 1012,2 hPa 0,0 l/m 0 min 0 min 0 W/m 8,4 km/h (2 Bft)
29.07.2015 22:58 13,8 C 12,2 C 82 % 0 lf 1012,2 hPa 0,0 l/m 0 min 0 min 0 W/m 6,3 km/h (2 Bft)
29.07.2015 23:00 13,8 C 12,2 C 82 % 0 lf 1012,2 hPa 0,0 l/m 0 min 0 min 0 W/m 16,7 km/h (3 Bft)
29.07.2015 23:02 13,8 C 12,2 C 82 % 0 lf 1012,3 hPa 0,0 l/m 0 min 0 min 0 W/m 12,6 km/h (3 Bft)
29.07.2015 23:04 13,7 C 12,2 C 82 % 0 lf 1012,2 hPa 0,0 l/m 0 min 0 min 0 W/m 8,4 km/h (2 Bft)
29.07.2015 23:06 13,7 C 12,2 C 82 % 0 lf 1012,3 hPa 0,0 l/m 0 min 0 min 0 W/m 10,5 km/h (2 Bft)
29.07.2015 23:08 13,7 C 12,2 C 82 % 0 lf 1012,3 hPa 0,0 l/m 0 min 0 min 0 W/m 8,4 km/h (2 Bft)
29.07.2015 23:10 13,7 C 12,2 C 82 % 0 lf 1012,3 hPa 0,0 l/m 0 min 0 min 0 W/m 8,4 km/h (2 Bft)
29.07.2015 23:12 13,7 C 12,2 C 82 % 0 lf 1012,3 hPa 0,0 l/m 0 min 0 min 0 W/m 8,4 km/h (2 Bft)
29.07.2015 23:14 13,7 C 12,2 C 82 % 0 lf 1012,3 hPa 0,0 l/m 0 min 0 min 0 W/m 10,5 km/h (2 Bft)
29.07.2015 23:16 13,7 C 11,7 C 82 % 0 lf 1012,3 hPa 0,0 l/m 0 min 0 min 0 W/m 6,3 km/h (2 Bft)
29.07.2015 23:18 13,7 C 11,7 C 82 % 0 lf 1012,3 hPa 0,0 l/m 0 min 0 min 0 W/m 10,5 km/h (2 Bft)
29.07.2015 23:20 13,6 C 11,7 C 82 % 0 lf 1012,3 hPa 0,0 l/m 0 min 0 min 0 W/m 12,6 km/h (3 Bft)
29.07.2015 23:22 13,6 C 11,7 C 82 % 0 lf 1012,3 hPa 0,0 l/m 0 min 0 min 0 W/m 8,4 km/h (2 Bft)
29.07.2015 23:24 13,6 C 11,7 C 83 % 0 lf 1012,3 hPa 0,0 l/m 0 min 0 min 0 W/m 10,5 km/h (2 Bft)
29.07.2015 23:26 13,6 C 11,7 C 83 % 0 lf 1012,3 hPa 0,0 l/m 0 min 0 min 0 W/m 8,4 km/h (2 Bft)
29.07.2015 23:28 13,6 C 11,7 C 83 % 0 lf 1012,4 hPa 0,0 l/m 0 min 0 min 0 W/m 10,5 km/h (2 Bft)
29.07.2015 23:30 13,5 C 11,7 C 83 % 0 lf 1012,3 hPa 0,0 l/m 0 min 0 min 0 W/m 8,4 km/h (2 Bft)
29.07.2015 23:32 13,5 C 11,7 C 83 % 0 lf 1012,4 hPa 0,0 l/m 0 min 0 min 0 W/m 8,4 km/h (2 Bft)
29.07.2015 23:34 13,4 C 11,7 C 83 % 0 lf 1012,4 hPa 0,0 l/m 0 min 0 min 0 W/m 8,4 km/h (2 Bft)
29.07.2015 23:36 13,4 C 11,7 C 83 % 0 lf 1012,3 hPa 0,0 l/m 0 min 0 min 0 W/m 6,3 km/h (2 Bft)
29.07.2015 23:38 13,4 C 11,7 C 83 % 0 lf 1012,4 hPa 0,0 l/m 0 min 0 min 0 W/m 6,3 km/h (2 Bft)
29.07.2015 23:40 13,4 C 11,1 C 83 % 0 lf 1012,4 hPa 0,0 l/m 0 min 0 min 0 W/m 8,4 km/h (2 Bft)
29.07.2015 23:42 13,3 C 11,1 C 83 % 0 lf 1012,4 hPa 0,0 l/m 0 min 0 min 0 W/m 8,4 km/h (2 Bft)
29.07.2015 23:44 13,3 C 11,1 C 83 % 0 lf 1012,4 hPa 0,0 l/m 0 min 0 min 0 W/m 8,4 km/h (2 Bft)
29.07.2015 23:46 13,3 C 11,1 C 83 % 0 lf 1012,3 hPa 0,0 l/m 0 min 0 min 0 W/m 6,3 km/h (2 Bft)
29.07.2015 23:48 13,3 C 11,1 C 83 % 0 lf 1012,4 hPa 0,0 l/m 0 min 0 min 0 W/m 12,6 km/h (3 Bft)
29.07.2015 23:50 13,2 C 11,1 C 83 % 0 lf 1012,4 hPa 0,0 l/m 0 min 0 min 0 W/m 8,4 km/h (2 Bft)
29.07.2015 23:52 13,2 C 11,1 C 83 % 0 lf 1012,4 hPa 0,0 l/m 0 min 0 min 0 W/m 8,4 km/h (2 Bft)
29.07.2015 23:54 13,2 C 11,1 C 84 % 0 lf 1012,4 hPa 0,0 l/m 0 min 0 min 0 W/m 8,4 km/h (2 Bft)
29.07.2015 23:56 13,1 C 11,1 C 84 % 0 lf 1012,4 hPa 0,0 l/m 0 min 0 min 0 W/m 8,4 km/h (2 Bft)
29.07.2015 23:58 13,1 C 11,1 C 84 % 0 lf 1012,4 hPa 0,0 l/m 0 min 0 min 0 W/m 8,4 km/h (2 Bft)
_ Min-Zeit 06:54 12:24 17:10 00:00 12:02 - - - - 22:14
Minimum _ 12,4 C 10,6 C 55 % 0 lf 1006,8 hPa - - - - 6,3 km/h (2 Bft)
_ Max-Zeit 16:50 16:34 07:08 12:18 23:28 12:20 06:24 12:18 13:20 11:48
Maximum _ 20,2 C 22,8 C 88 % 15 lf 1012,4 hPa 0,4 l/m 2 min 2 min 1015 W/m 48,1 km/h
S-SW (6 Bft)
Durchschnitt _ 15,2 C 14,0 C 76 % 1 lf 1008,7 hPa #1,0 l/m #6:28 h #1:14 h 323 W/m 22,5 km/h (4 Bft)
© 2015 W. Hausmann